<?xml version="1.0" encoding="utf-8"?>
<gpx xmlns:xsi="http://www.w3.org/2001/XMLSchema-instance" xmlns:xsd="http://www.w3.org/2001/XMLSchema" version="1.1" creator="Shapelink.com" xmlns="http://www.topografix.com/GPX/1/1" xmlns:gpxtpx="http://www.garmin.com/xmlschemas/TrackPointExtension/v1">
  <metadata>
    <name>Cykling 47.53 km, 2019-08-04</name>
    <desc></desc>
    <author><name>Marian Moron</name></author> 
    <time>2019-08-04T10:09:22Z</time>
  </metadata>
  <trk>
    <name>Cykling 47.53 km, 2019-08-04</name>
    <trkseg>
      <trkpt lat="51.228788277758" lon="4.448732149378">
        <ele>20.2</ele>
        <time>2019-08-04T10:09:22Z</time>
      </trkpt>
      <trkpt lat="51.228987012607" lon="4.448498294368">
        <ele>19.4</ele>
        <time>2019-08-04T10:09:34Z</time>
      </trkpt>
      <trkpt lat="51.229321701874" lon="4.449140599365">
        <ele>15</ele>
        <time>2019-08-04T10:09:50Z</time>
      </trkpt>
      <trkpt lat="51.22948632239" lon="4.4500261471">
        <ele>10.4</ele>
        <time>2019-08-04T10:10:03Z</time>
      </trkpt>
      <trkpt lat="51.229620097514" lon="4.450707847027">
        <ele>7</ele>
        <time>2019-08-04T10:10:13Z</time>
      </trkpt>
      <trkpt lat="51.229772396637" lon="4.451537068394">
        <ele>2</ele>
        <time>2019-08-04T10:10:27Z</time>
      </trkpt>
      <trkpt lat="51.229911703815" lon="4.45238062281">
        <ele>0</ele>
        <time>2019-08-04T10:10:39Z</time>
      </trkpt>
      <trkpt lat="51.230060901635" lon="4.453249658202">
        <ele>0</ele>
        <time>2019-08-04T10:10:51Z</time>
      </trkpt>
      <trkpt lat="51.230219487183" lon="4.45409807412">
        <ele>0</ele>
        <time>2019-08-04T10:11:03Z</time>
      </trkpt>
      <trkpt lat="51.230270365316" lon="4.454364869997">
        <ele>0</ele>
        <time>2019-08-04T10:11:07Z</time>
      </trkpt>
      <trkpt lat="51.230262653968" lon="4.454492442515">
        <ele>0</ele>
        <time>2019-08-04T10:11:09Z</time>
      </trkpt>
      <trkpt lat="51.230138266572" lon="4.455136675349">
        <ele>0</ele>
        <time>2019-08-04T10:11:23Z</time>
      </trkpt>
      <trkpt lat="51.230126951007" lon="4.455283526237">
        <ele>0</ele>
        <time>2019-08-04T10:11:29Z</time>
      </trkpt>
      <trkpt lat="51.23063548088" lon="4.45564872562">
        <ele>9.6</ele>
        <time>2019-08-04T10:11:44Z</time>
      </trkpt>
      <trkpt lat="51.23078551689" lon="4.455773867387">
        <ele>9.2</ele>
        <time>2019-08-04T10:11:48Z</time>
      </trkpt>
      <trkpt lat="51.231215424541" lon="4.456360684206">
        <ele>8.4</ele>
        <time>2019-08-04T10:12:03Z</time>
      </trkpt>
      <trkpt lat="51.231233613264" lon="4.457270874727">
        <ele>2.4</ele>
        <time>2019-08-04T10:12:17Z</time>
      </trkpt>
      <trkpt lat="51.231213329066" lon="4.457539179346">
        <ele>7.8</ele>
        <time>2019-08-04T10:12:22Z</time>
      </trkpt>
      <trkpt lat="51.230660542761" lon="4.457677061601">
        <ele>3.4</ele>
        <time>2019-08-04T10:12:33Z</time>
      </trkpt>
      <trkpt lat="51.23012334679" lon="4.457817290788">
        <ele>1.8</ele>
        <time>2019-08-04T10:12:44Z</time>
      </trkpt>
      <trkpt lat="51.229769965886" lon="4.457950898274">
        <ele>4.2</ele>
        <time>2019-08-04T10:12:55Z</time>
      </trkpt>
      <trkpt lat="51.229759907606" lon="4.45790429491">
        <ele>2.6</ele>
        <time>2019-08-04T10:13:31Z</time>
      </trkpt>
      <trkpt lat="51.229842888416" lon="4.457895242458">
        <ele>3.2</ele>
        <time>2019-08-04T10:13:48Z</time>
      </trkpt>
      <trkpt lat="51.23017112362" lon="4.457786445396">
        <ele>3.6</ele>
        <time>2019-08-04T10:13:57Z</time>
      </trkpt>
      <trkpt lat="51.230711001799" lon="4.457657112679">
        <ele>2.8</ele>
        <time>2019-08-04T10:14:07Z</time>
      </trkpt>
      <trkpt lat="51.231190865574" lon="4.457439267098">
        <ele>0</ele>
        <time>2019-08-04T10:14:18Z</time>
      </trkpt>
      <trkpt lat="51.231215424541" lon="4.457297948264">
        <ele>0</ele>
        <time>2019-08-04T10:14:20Z</time>
      </trkpt>
      <trkpt lat="51.231304272681" lon="4.456394798539">
        <ele>0</ele>
        <time>2019-08-04T10:14:32Z</time>
      </trkpt>
      <trkpt lat="51.231520525701" lon="4.45619103455">
        <ele>0</ele>
        <time>2019-08-04T10:14:40Z</time>
      </trkpt>
      <trkpt lat="51.231593448231" lon="4.45623210586">
        <ele>0</ele>
        <time>2019-08-04T10:14:42Z</time>
      </trkpt>
      <trkpt lat="51.23208135863" lon="4.456679783139">
        <ele>0</ele>
        <time>2019-08-04T10:14:54Z</time>
      </trkpt>
      <trkpt lat="51.232201303619" lon="4.456772989867">
        <ele>0</ele>
        <time>2019-08-04T10:14:57Z</time>
      </trkpt>
      <trkpt lat="51.2322850388" lon="4.456739126991">
        <ele>0</ele>
        <time>2019-08-04T10:14:59Z</time>
      </trkpt>
      <trkpt lat="51.232300880591" lon="4.456603591668">
        <ele>0.6</ele>
        <time>2019-08-04T10:15:01Z</time>
      </trkpt>
      <trkpt lat="51.232137349722" lon="4.45572835367">
        <ele>0</ele>
        <time>2019-08-04T10:15:11Z</time>
      </trkpt>
      <trkpt lat="51.232113796583" lon="4.455632716191">
        <ele>0</ele>
        <time>2019-08-04T10:15:12Z</time>
      </trkpt>
      <trkpt lat="51.23193467538" lon="4.454741468764">
        <ele>5</ele>
        <time>2019-08-04T10:15:21Z</time>
      </trkpt>
      <trkpt lat="51.231776760384" lon="4.45383655884">
        <ele>3.2</ele>
        <time>2019-08-04T10:15:30Z</time>
      </trkpt>
      <trkpt lat="51.231612223687" lon="4.45291622622">
        <ele>3.8</ele>
        <time>2019-08-04T10:15:39Z</time>
      </trkpt>
      <trkpt lat="51.23145942165" lon="4.452016596893">
        <ele>2</ele>
        <time>2019-08-04T10:15:48Z</time>
      </trkpt>
      <trkpt lat="51.231286083958" lon="4.451103640345">
        <ele>1</ele>
        <time>2019-08-04T10:15:57Z</time>
      </trkpt>
      <trkpt lat="51.231140657993" lon="4.450251033477">
        <ele>0.4</ele>
        <time>2019-08-04T10:16:05Z</time>
      </trkpt>
      <trkpt lat="51.230964470455" lon="4.449367245941">
        <ele>0</ele>
        <time>2019-08-04T10:16:13Z</time>
      </trkpt>
      <trkpt lat="51.230766657615" lon="4.448498881101">
        <ele>0</ele>
        <time>2019-08-04T10:16:21Z</time>
      </trkpt>
      <trkpt lat="51.230550236957" lon="4.447651471011">
        <ele>0</ele>
        <time>2019-08-04T10:16:29Z</time>
      </trkpt>
      <trkpt lat="51.230317303956" lon="4.446823339291">
        <ele>0</ele>
        <time>2019-08-04T10:16:37Z</time>
      </trkpt>
      <trkpt lat="51.230135165269" lon="4.446215232446">
        <ele>0</ele>
        <time>2019-08-04T10:16:43Z</time>
      </trkpt>
      <trkpt lat="51.229912206729" lon="4.445429177864">
        <ele>0</ele>
        <time>2019-08-04T10:16:51Z</time>
      </trkpt>
      <trkpt lat="51.22981740744" lon="4.445122065048">
        <ele>0</ele>
        <time>2019-08-04T10:16:55Z</time>
      </trkpt>
      <trkpt lat="51.229761583986" lon="4.444940680732">
        <ele>0</ele>
        <time>2019-08-04T10:17:14Z</time>
      </trkpt>
      <trkpt lat="51.229754124095" lon="4.444909751521">
        <ele>0</ele>
        <time>2019-08-04T10:17:18Z</time>
      </trkpt>
      <trkpt lat="51.229501912724" lon="4.444084385828">
        <ele>0</ele>
        <time>2019-08-04T10:17:35Z</time>
      </trkpt>
      <trkpt lat="51.229477605214" lon="4.444019929017">
        <ele>0</ele>
        <time>2019-08-04T10:17:36Z</time>
      </trkpt>
      <trkpt lat="51.229412980765" lon="4.443739135367">
        <ele>0</ele>
        <time>2019-08-04T10:17:40Z</time>
      </trkpt>
      <trkpt lat="51.229402838666" lon="4.443536209568">
        <ele>0</ele>
        <time>2019-08-04T10:17:43Z</time>
      </trkpt>
      <trkpt lat="51.229403676856" lon="4.443362285143">
        <ele>0</ele>
        <time>2019-08-04T10:17:59Z</time>
      </trkpt>
      <trkpt lat="51.229392612748" lon="4.443329260457">
        <ele>0</ele>
        <time>2019-08-04T10:18:03Z</time>
      </trkpt>
      <trkpt lat="51.229304518979" lon="4.443097500922">
        <ele>0</ele>
        <time>2019-08-04T10:18:10Z</time>
      </trkpt>
      <trkpt lat="51.229304938074" lon="4.443082078226">
        <ele>0</ele>
        <time>2019-08-04T10:18:30Z</time>
      </trkpt>
      <trkpt lat="51.229302088228" lon="4.44307168467">
        <ele>0</ele>
        <time>2019-08-04T10:18:32Z</time>
      </trkpt>
      <trkpt lat="51.229174599529" lon="4.442684608528">
        <ele>0</ele>
        <time>2019-08-04T10:18:42Z</time>
      </trkpt>
      <trkpt lat="51.228730358829" lon="4.442115645156">
        <ele>0</ele>
        <time>2019-08-04T10:18:53Z</time>
      </trkpt>
      <trkpt lat="51.228434310121" lon="4.441577862452">
        <ele>0.2</ele>
        <time>2019-08-04T10:19:01Z</time>
      </trkpt>
      <trkpt lat="51.228322663213" lon="4.44140703933">
        <ele>0</ele>
        <time>2019-08-04T10:19:04Z</time>
      </trkpt>
      <trkpt lat="51.228047569255" lon="4.440820138692">
        <ele>0</ele>
        <time>2019-08-04T10:19:13Z</time>
      </trkpt>
      <trkpt lat="51.227885630947" lon="4.440668845397">
        <ele>0</ele>
        <time>2019-08-04T10:19:18Z</time>
      </trkpt>
      <trkpt lat="51.227829723674" lon="4.440528867667">
        <ele>0</ele>
        <time>2019-08-04T10:19:29Z</time>
      </trkpt>
      <trkpt lat="51.227654206688" lon="4.440262155609">
        <ele>0</ele>
        <time>2019-08-04T10:19:40Z</time>
      </trkpt>
      <trkpt lat="51.227611878093" lon="4.440138606403">
        <ele>0</ele>
        <time>2019-08-04T10:19:42Z</time>
      </trkpt>
      <trkpt lat="51.227560329408" lon="4.439913217112">
        <ele>0</ele>
        <time>2019-08-04T10:19:45Z</time>
      </trkpt>
      <trkpt lat="51.227215581861" lon="4.439159181388">
        <ele>0</ele>
        <time>2019-08-04T10:19:55Z</time>
      </trkpt>
      <trkpt lat="51.227013326614" lon="4.438723071131">
        <ele>0</ele>
        <time>2019-08-04T10:20:01Z</time>
      </trkpt>
      <trkpt lat="51.226824147131" lon="4.437893514488">
        <ele>0</ele>
        <time>2019-08-04T10:20:12Z</time>
      </trkpt>
      <trkpt lat="51.226668662886" lon="4.437084996414">
        <ele>0</ele>
        <time>2019-08-04T10:20:28Z</time>
      </trkpt>
      <trkpt lat="51.226575037063" lon="4.436675708237">
        <ele>0</ele>
        <time>2019-08-04T10:20:38Z</time>
      </trkpt>
      <trkpt lat="51.22664485829" lon="4.436576215084">
        <ele>0</ele>
        <time>2019-08-04T10:20:46Z</time>
      </trkpt>
      <trkpt lat="51.226680229908" lon="4.436550901746">
        <ele>0</ele>
        <time>2019-08-04T10:20:48Z</time>
      </trkpt>
      <trkpt lat="51.226829343909" lon="4.436638744058">
        <ele>1.2</ele>
        <time>2019-08-04T10:20:54Z</time>
      </trkpt>
      <trkpt lat="51.226850801573" lon="4.436592727427">
        <ele>3.8</ele>
        <time>2019-08-04T10:20:56Z</time>
      </trkpt>
      <trkpt lat="51.227146179729" lon="4.435887055266">
        <ele>1</ele>
        <time>2019-08-04T10:21:14Z</time>
      </trkpt>
      <trkpt lat="51.227567370204" lon="4.4352404755">
        <ele>0</ele>
        <time>2019-08-04T10:21:26Z</time>
      </trkpt>
      <trkpt lat="51.227705587735" lon="4.434899164532">
        <ele>0</ele>
        <time>2019-08-04T10:21:30Z</time>
      </trkpt>
      <trkpt lat="51.227910022276" lon="4.434071368088">
        <ele>2</ele>
        <time>2019-08-04T10:21:38Z</time>
      </trkpt>
      <trkpt lat="51.228005743574" lon="4.433494441911">
        <ele>0.8</ele>
        <time>2019-08-04T10:21:43Z</time>
      </trkpt>
      <trkpt lat="51.228038935898" lon="4.433139468446">
        <ele>0</ele>
        <time>2019-08-04T10:21:46Z</time>
      </trkpt>
      <trkpt lat="51.228100039949" lon="4.432914079155">
        <ele>0</ele>
        <time>2019-08-04T10:21:48Z</time>
      </trkpt>
      <trkpt lat="51.228317298797" lon="4.432068345445">
        <ele>0</ele>
        <time>2019-08-04T10:21:55Z</time>
      </trkpt>
      <trkpt lat="51.228493570154" lon="4.43116603391">
        <ele>1.2</ele>
        <time>2019-08-04T10:22:02Z</time>
      </trkpt>
      <trkpt lat="51.22869171827" lon="4.430335806715">
        <ele>1.6</ele>
        <time>2019-08-04T10:22:09Z</time>
      </trkpt>
      <trkpt lat="51.228900846675" lon="4.429425616194">
        <ele>1</ele>
        <time>2019-08-04T10:22:17Z</time>
      </trkpt>
      <trkpt lat="51.229134366409" lon="4.428518694614">
        <ele>1</ele>
        <time>2019-08-04T10:22:25Z</time>
      </trkpt>
      <trkpt lat="51.229363779012" lon="4.427681175166">
        <ele>0.4</ele>
        <time>2019-08-04T10:22:32Z</time>
      </trkpt>
      <trkpt lat="51.229530159727" lon="4.426803757874">
        <ele>0.2</ele>
        <time>2019-08-04T10:22:39Z</time>
      </trkpt>
      <trkpt lat="51.229729816585" lon="4.426014937265">
        <ele>0.4</ele>
        <time>2019-08-04T10:22:46Z</time>
      </trkpt>
      <trkpt lat="51.229830064109" lon="4.425865068893">
        <ele>0.4</ele>
        <time>2019-08-04T10:22:48Z</time>
      </trkpt>
      <trkpt lat="51.229942130112" lon="4.425750739777">
        <ele>0</ele>
        <time>2019-08-04T10:22:50Z</time>
      </trkpt>
      <trkpt lat="51.230023015447" lon="4.425587795641">
        <ele>0</ele>
        <time>2019-08-04T10:22:52Z</time>
      </trkpt>
      <trkpt lat="51.230070708458" lon="4.425391910638">
        <ele>0</ele>
        <time>2019-08-04T10:22:54Z</time>
      </trkpt>
      <trkpt lat="51.230213200758" lon="4.424535196639">
        <ele>0</ele>
        <time>2019-08-04T10:23:02Z</time>
      </trkpt>
      <trkpt lat="51.230217307889" lon="4.42442614812">
        <ele>0</ele>
        <time>2019-08-04T10:23:03Z</time>
      </trkpt>
      <trkpt lat="51.230179589339" lon="4.423539259281">
        <ele>0</ele>
        <time>2019-08-04T10:23:11Z</time>
      </trkpt>
      <trkpt lat="51.23013759602" lon="4.42266343455">
        <ele>0</ele>
        <time>2019-08-04T10:23:19Z</time>
      </trkpt>
      <trkpt lat="51.230116473632" lon="4.421801607592">
        <ele>0</ele>
        <time>2019-08-04T10:23:27Z</time>
      </trkpt>
      <trkpt lat="51.23013508145" lon="4.420933242752">
        <ele>0</ele>
        <time>2019-08-04T10:23:35Z</time>
      </trkpt>
      <trkpt lat="51.230180762805" lon="4.42005163451">
        <ele>0</ele>
        <time>2019-08-04T10:23:43Z</time>
      </trkpt>
      <trkpt lat="51.230326607865" lon="4.419161225273">
        <ele>0.4</ele>
        <time>2019-08-04T10:23:51Z</time>
      </trkpt>
      <trkpt lat="51.230361560388" lon="4.41895528199">
        <ele>0.4</ele>
        <time>2019-08-04T10:23:53Z</time>
      </trkpt>
      <trkpt lat="51.230381341672" lon="4.418784375049">
        <ele>0.4</ele>
        <time>2019-08-04T10:23:55Z</time>
      </trkpt>
      <trkpt lat="51.230345131864" lon="4.418649510278">
        <ele>0.6</ele>
        <time>2019-08-04T10:23:57Z</time>
      </trkpt>
      <trkpt lat="51.230283105804" lon="4.418560075405">
        <ele>1.2</ele>
        <time>2019-08-04T10:23:59Z</time>
      </trkpt>
      <trkpt lat="51.230197275148" lon="4.418543563062">
        <ele>1.8</ele>
        <time>2019-08-04T10:24:01Z</time>
      </trkpt>
      <trkpt lat="51.230054112296" lon="4.418555968274">
        <ele>2.6</ele>
        <time>2019-08-04T10:24:04Z</time>
      </trkpt>
      <trkpt lat="51.229907429046" lon="4.418530654936">
        <ele>3.6</ele>
        <time>2019-08-04T10:24:07Z</time>
      </trkpt>
      <trkpt lat="51.22982495115" lon="4.417604287348">
        <ele>0.8</ele>
        <time>2019-08-04T10:24:19Z</time>
      </trkpt>
      <trkpt lat="51.229836266715" lon="4.416663167616">
        <ele>2</ele>
        <time>2019-08-04T10:24:27Z</time>
      </trkpt>
      <trkpt lat="51.229832243403" lon="4.41578692379">
        <ele>3.6</ele>
        <time>2019-08-04T10:24:35Z</time>
      </trkpt>
      <trkpt lat="51.229818413268" lon="4.414920822063">
        <ele>4</ele>
        <time>2019-08-04T10:24:43Z</time>
      </trkpt>
      <trkpt lat="51.229813384128" lon="4.414022617659">
        <ele>5</ele>
        <time>2019-08-04T10:24:52Z</time>
      </trkpt>
      <trkpt lat="51.229839870932" lon="4.413712235902">
        <ele>4.2</ele>
        <time>2019-08-04T10:24:56Z</time>
      </trkpt>
      <trkpt lat="51.229869961953" lon="4.413548202119">
        <ele>3.8</ele>
        <time>2019-08-04T10:24:59Z</time>
      </trkpt>
      <trkpt lat="51.229886055201" lon="4.413541328961">
        <ele>6.4</ele>
        <time>2019-08-04T10:25:36Z</time>
      </trkpt>
      <trkpt lat="51.229878260034" lon="4.413520877125">
        <ele>6</ele>
        <time>2019-08-04T10:25:37Z</time>
      </trkpt>
      <trkpt lat="51.229742054159" lon="4.413106895084">
        <ele>9.4</ele>
        <time>2019-08-04T10:25:44Z</time>
      </trkpt>
      <trkpt lat="51.229650356173" lon="4.412935149953">
        <ele>8.2</ele>
        <time>2019-08-04T10:25:48Z</time>
      </trkpt>
      <trkpt lat="51.22949638067" lon="4.413006563741">
        <ele>4.8</ele>
        <time>2019-08-04T10:25:52Z</time>
      </trkpt>
      <trkpt lat="51.229357995501" lon="4.413137321381">
        <ele>4</ele>
        <time>2019-08-04T10:25:55Z</time>
      </trkpt>
      <trkpt lat="51.229266548972" lon="4.41325642818">
        <ele>3.4</ele>
        <time>2019-08-04T10:25:57Z</time>
      </trkpt>
      <trkpt lat="51.229151465485" lon="4.413334547488">
        <ele>2.8</ele>
        <time>2019-08-04T10:25:59Z</time>
      </trkpt>
      <trkpt lat="51.228619382473" lon="4.41355314744">
        <ele>2</ele>
        <time>2019-08-04T10:26:07Z</time>
      </trkpt>
      <trkpt lat="51.228161563095" lon="4.413700417423">
        <ele>2.4</ele>
        <time>2019-08-04T10:26:14Z</time>
      </trkpt>
      <trkpt lat="51.227588324954" lon="4.413817680204">
        <ele>4</ele>
        <time>2019-08-04T10:26:23Z</time>
      </trkpt>
      <trkpt lat="51.227012991338" lon="4.414018007614">
        <ele>4.8</ele>
        <time>2019-08-04T10:26:34Z</time>
      </trkpt>
      <trkpt lat="51.226353922541" lon="4.414234176815">
        <ele>3.8</ele>
        <time>2019-08-04T10:26:49Z</time>
      </trkpt>
      <trkpt lat="51.226290471558" lon="4.414289832631">
        <ele>11.2</ele>
        <time>2019-08-04T10:27:09Z</time>
      </trkpt>
      <trkpt lat="51.225999200533" lon="4.414397707684">
        <ele>10.8</ele>
        <time>2019-08-04T10:27:18Z</time>
      </trkpt>
      <trkpt lat="51.225828545049" lon="4.414470043481">
        <ele>9.2</ele>
        <time>2019-08-04T10:27:22Z</time>
      </trkpt>
      <trkpt lat="51.225700134341" lon="4.414588144452">
        <ele>7</ele>
        <time>2019-08-04T10:27:25Z</time>
      </trkpt>
      <trkpt lat="51.225594103306" lon="4.414639357861">
        <ele>5.6</ele>
        <time>2019-08-04T10:27:27Z</time>
      </trkpt>
      <trkpt lat="51.225079789922" lon="4.414821831824">
        <ele>0.4</ele>
        <time>2019-08-04T10:27:37Z</time>
      </trkpt>
      <trkpt lat="51.224895471941" lon="4.414818898159">
        <ele>0.6</ele>
        <time>2019-08-04T10:27:41Z</time>
      </trkpt>
      <trkpt lat="51.22464745152" lon="4.414897101286">
        <ele>3.8</ele>
        <time>2019-08-04T10:27:48Z</time>
      </trkpt>
      <trkpt lat="51.224464642281" lon="4.415018890293">
        <ele>15</ele>
        <time>2019-08-04T10:28:30Z</time>
      </trkpt>
      <trkpt lat="51.224215113118" lon="4.415147887734">
        <ele>15.8</ele>
        <time>2019-08-04T10:28:38Z</time>
      </trkpt>
      <trkpt lat="51.224077649958" lon="4.415286691998">
        <ele>15.2</ele>
        <time>2019-08-04T10:28:41Z</time>
      </trkpt>
      <trkpt lat="51.223525282748" lon="4.415520463189">
        <ele>13.6</ele>
        <time>2019-08-04T10:28:50Z</time>
      </trkpt>
      <trkpt lat="51.222966712932" lon="4.415706960464">
        <ele>11.2</ele>
        <time>2019-08-04T10:29:00Z</time>
      </trkpt>
      <trkpt lat="51.222773761594" lon="4.415765298488">
        <ele>11.4</ele>
        <time>2019-08-04T10:29:04Z</time>
      </trkpt>
      <trkpt lat="51.222465559131" lon="4.4157609399">
        <ele>11.8</ele>
        <time>2019-08-04T10:29:10Z</time>
      </trkpt>
      <trkpt lat="51.221906402582" lon="4.415963614242">
        <ele>9.2</ele>
        <time>2019-08-04T10:29:20Z</time>
      </trkpt>
      <trkpt lat="51.221381947099" lon="4.416166120946">
        <ele>11</ele>
        <time>2019-08-04T10:29:29Z</time>
      </trkpt>
      <trkpt lat="51.220806278207" lon="4.416288245229">
        <ele>13</ele>
        <time>2019-08-04T10:29:40Z</time>
      </trkpt>
      <trkpt lat="51.220635119809" lon="4.416170395715">
        <ele>13.4</ele>
        <time>2019-08-04T10:29:45Z</time>
      </trkpt>
      <trkpt lat="51.220648866125" lon="4.416032848736">
        <ele>11.6</ele>
        <time>2019-08-04T10:29:47Z</time>
      </trkpt>
      <trkpt lat="51.220757327911" lon="4.41563102045">
        <ele>6.6</ele>
        <time>2019-08-04T10:29:54Z</time>
      </trkpt>
      <trkpt lat="51.220730086736" lon="4.41555223059">
        <ele>4.2</ele>
        <time>2019-08-04T10:29:56Z</time>
      </trkpt>
      <trkpt lat="51.220157183871" lon="4.415437901474">
        <ele>1.6</ele>
        <time>2019-08-04T10:30:08Z</time>
      </trkpt>
      <trkpt lat="51.219641194107" lon="4.415215613486">
        <ele>7.4</ele>
        <time>2019-08-04T10:30:19Z</time>
      </trkpt>
      <trkpt lat="51.219074745305" lon="4.415040347957">
        <ele>1.4</ele>
        <time>2019-08-04T10:30:30Z</time>
      </trkpt>
      <trkpt lat="51.218615668642" lon="4.41480624149">
        <ele>0</ele>
        <time>2019-08-04T10:30:41Z</time>
      </trkpt>
      <trkpt lat="51.218609466036" lon="4.414804146015">
        <ele>0</ele>
        <time>2019-08-04T10:30:44Z</time>
      </trkpt>
      <trkpt lat="51.218577698635" lon="4.414782939808">
        <ele>0</ele>
        <time>2019-08-04T10:30:47Z</time>
      </trkpt>
      <trkpt lat="51.218083753268" lon="4.414414387665">
        <ele>0</ele>
        <time>2019-08-04T10:31:01Z</time>
      </trkpt>
      <trkpt lat="51.217579079069" lon="4.414112052532">
        <ele>0</ele>
        <time>2019-08-04T10:31:13Z</time>
      </trkpt>
      <trkpt lat="51.217370872673" lon="4.413994622113">
        <ele>0</ele>
        <time>2019-08-04T10:31:18Z</time>
      </trkpt>
      <trkpt lat="51.216828982838" lon="4.413693041351">
        <ele>0</ele>
        <time>2019-08-04T10:31:31Z</time>
      </trkpt>
      <trkpt lat="51.216624967392" lon="4.413527331188">
        <ele>0</ele>
        <time>2019-08-04T10:31:36Z</time>
      </trkpt>
      <trkpt lat="51.21610210447" lon="4.413050568716">
        <ele>0</ele>
        <time>2019-08-04T10:31:48Z</time>
      </trkpt>
      <trkpt lat="51.215584522145" lon="4.412591659691">
        <ele>0</ele>
        <time>2019-08-04T10:31:56Z</time>
      </trkpt>
      <trkpt lat="51.215133324468" lon="4.412073322995">
        <ele>0</ele>
        <time>2019-08-04T10:32:05Z</time>
      </trkpt>
      <trkpt lat="51.214706099025" lon="4.411468065996">
        <ele>0</ele>
        <time>2019-08-04T10:32:15Z</time>
      </trkpt>
      <trkpt lat="51.214434693103" lon="4.411113343988">
        <ele>0</ele>
        <time>2019-08-04T10:32:22Z</time>
      </trkpt>
      <trkpt lat="51.214371912672" lon="4.41094889111">
        <ele>0</ele>
        <time>2019-08-04T10:32:25Z</time>
      </trkpt>
      <trkpt lat="51.214137973843" lon="4.410425357636">
        <ele>4.4</ele>
        <time>2019-08-04T10:32:40Z</time>
      </trkpt>
      <trkpt lat="51.214147948304" lon="4.410400547212">
        <ele>4.6</ele>
        <time>2019-08-04T10:32:41Z</time>
      </trkpt>
      <trkpt lat="51.214380629848" lon="4.410481264909">
        <ele>36.2</ele>
        <time>2019-08-04T11:23:30Z</time>
      </trkpt>
      <trkpt lat="51.21426814475" lon="4.41065887737">
        <ele>34.2</ele>
        <time>2019-08-04T11:23:51Z</time>
      </trkpt>
      <trkpt lat="51.21441147524" lon="4.410881165358">
        <ele>33.6</ele>
        <time>2019-08-04T11:24:01Z</time>
      </trkpt>
      <trkpt lat="51.214652790141" lon="4.411058526362">
        <ele>32.6</ele>
        <time>2019-08-04T11:24:15Z</time>
      </trkpt>
      <trkpt lat="51.215071549865" lon="4.411610139201">
        <ele>30.8</ele>
        <time>2019-08-04T11:24:35Z</time>
      </trkpt>
      <trkpt lat="51.215086302009" lon="4.41162950139">
        <ele>30.4</ele>
        <time>2019-08-04T11:24:38Z</time>
      </trkpt>
      <trkpt lat="51.215130223165" lon="4.411730000371">
        <ele>31.2</ele>
        <time>2019-08-04T11:25:12Z</time>
      </trkpt>
      <trkpt lat="51.215157212883" lon="4.411766293998">
        <ele>31.6</ele>
        <time>2019-08-04T11:25:19Z</time>
      </trkpt>
      <trkpt lat="51.215095270642" lon="4.411998891723">
        <ele>44.6</ele>
        <time>2019-08-04T11:26:51Z</time>
      </trkpt>
      <trkpt lat="51.215074902625" lon="4.411964945028">
        <ele>44.6</ele>
        <time>2019-08-04T11:26:54Z</time>
      </trkpt>
      <trkpt lat="51.215318061544" lon="4.411964609752">
        <ele>26.6</ele>
        <time>2019-08-04T11:27:05Z</time>
      </trkpt>
      <trkpt lat="51.215802619183" lon="4.41239560705">
        <ele>33.2</ele>
        <time>2019-08-04T11:27:20Z</time>
      </trkpt>
      <trkpt lat="51.216259516552" lon="4.41285577336">
        <ele>30.8</ele>
        <time>2019-08-04T11:27:34Z</time>
      </trkpt>
      <trkpt lat="51.216712139152" lon="4.413382072861">
        <ele>21.4</ele>
        <time>2019-08-04T11:27:49Z</time>
      </trkpt>
      <trkpt lat="51.217231900771" lon="4.413756408515">
        <ele>4.8</ele>
        <time>2019-08-04T11:28:04Z</time>
      </trkpt>
      <trkpt lat="51.217745543603" lon="4.414105011736">
        <ele>0</ele>
        <time>2019-08-04T11:28:22Z</time>
      </trkpt>
      <trkpt lat="51.218252732372" lon="4.414546234952">
        <ele>0</ele>
        <time>2019-08-04T11:28:38Z</time>
      </trkpt>
      <trkpt lat="51.218755981648" lon="4.414918978045">
        <ele>0</ele>
        <time>2019-08-04T11:28:51Z</time>
      </trkpt>
      <trkpt lat="51.21930063751" lon="4.41515576672">
        <ele>0</ele>
        <time>2019-08-04T11:29:07Z</time>
      </trkpt>
      <trkpt lat="51.219740016708" lon="4.415229611259">
        <ele>8.6</ele>
        <time>2019-08-04T11:29:19Z</time>
      </trkpt>
      <trkpt lat="51.220282744733" lon="4.415416695267">
        <ele>6.8</ele>
        <time>2019-08-04T11:29:36Z</time>
      </trkpt>
      <trkpt lat="51.220662444803" lon="4.41571232488">
        <ele>1.4</ele>
        <time>2019-08-04T11:29:47Z</time>
      </trkpt>
      <trkpt lat="51.220705108674" lon="4.416054893133">
        <ele>0</ele>
        <time>2019-08-04T11:29:55Z</time>
      </trkpt>
      <trkpt lat="51.221268539992" lon="4.416165534213">
        <ele>0</ele>
        <time>2019-08-04T11:30:10Z</time>
      </trkpt>
      <trkpt lat="51.221854853897" lon="4.416017593678">
        <ele>3.6</ele>
        <time>2019-08-04T11:30:21Z</time>
      </trkpt>
      <trkpt lat="51.222381404855" lon="4.415833443335">
        <ele>4.8</ele>
        <time>2019-08-04T11:30:32Z</time>
      </trkpt>
      <trkpt lat="51.222765882608" lon="4.415790192731">
        <ele>6.2</ele>
        <time>2019-08-04T11:30:40Z</time>
      </trkpt>
      <trkpt lat="51.22334741883" lon="4.41559749285">
        <ele>11.4</ele>
        <time>2019-08-04T11:30:51Z</time>
      </trkpt>
      <trkpt lat="51.223897187651" lon="4.415448462668">
        <ele>12</ele>
        <time>2019-08-04T11:31:01Z</time>
      </trkpt>
      <trkpt lat="51.224107321884" lon="4.41534519766">
        <ele>13</ele>
        <time>2019-08-04T11:31:05Z</time>
      </trkpt>
      <trkpt lat="51.224180914966" lon="4.415260372832">
        <ele>12.6</ele>
        <time>2019-08-04T11:31:07Z</time>
      </trkpt>
      <trkpt lat="51.224477801864" lon="4.415040264138">
        <ele>6.8</ele>
        <time>2019-08-04T11:31:19Z</time>
      </trkpt>
      <trkpt lat="51.224469839059" lon="4.415018471198">
        <ele>4.2</ele>
        <time>2019-08-04T11:31:27Z</time>
      </trkpt>
      <trkpt lat="51.224487692506" lon="4.41500321614">
        <ele>3.6</ele>
        <time>2019-08-04T11:31:31Z</time>
      </trkpt>
      <trkpt lat="51.224967304824" lon="4.414821077453">
        <ele>2.4</ele>
        <time>2019-08-04T11:31:48Z</time>
      </trkpt>
      <trkpt lat="51.225049279806" lon="4.41483809271">
        <ele>2.6</ele>
        <time>2019-08-04T11:31:50Z</time>
      </trkpt>
      <trkpt lat="51.225593181297" lon="4.414680848266">
        <ele>9.6</ele>
        <time>2019-08-04T11:32:02Z</time>
      </trkpt>
      <trkpt lat="51.226071620149" lon="4.414369125405">
        <ele>8</ele>
        <time>2019-08-04T11:32:18Z</time>
      </trkpt>
      <trkpt lat="51.226327687194" lon="4.414270051347">
        <ele>0</ele>
        <time>2019-08-04T11:33:55Z</time>
      </trkpt>
      <trkpt lat="51.226875779635" lon="4.414123368097">
        <ele>2.8</ele>
        <time>2019-08-04T11:34:07Z</time>
      </trkpt>
      <trkpt lat="51.227410880131" lon="4.413928153646">
        <ele>2.4</ele>
        <time>2019-08-04T11:34:16Z</time>
      </trkpt>
      <trkpt lat="51.227980514055" lon="4.413756995248">
        <ele>3.2</ele>
        <time>2019-08-04T11:34:25Z</time>
      </trkpt>
      <trkpt lat="51.228094675533" lon="4.413742829837">
        <ele>3.4</ele>
        <time>2019-08-04T11:34:27Z</time>
      </trkpt>
      <trkpt lat="51.228295338219" lon="4.413755737963">
        <ele>4.8</ele>
        <time>2019-08-04T11:34:31Z</time>
      </trkpt>
      <trkpt lat="51.22887192912" lon="4.413583238461">
        <ele>7.2</ele>
        <time>2019-08-04T11:34:42Z</time>
      </trkpt>
      <trkpt lat="51.229258586167" lon="4.413289285228">
        <ele>16.2</ele>
        <time>2019-08-04T11:34:51Z</time>
      </trkpt>
      <trkpt lat="51.229261771289" lon="4.41311393588">
        <ele>25.4</ele>
        <time>2019-08-04T11:34:53Z</time>
      </trkpt>
      <trkpt lat="51.229610961243" lon="4.412839763931">
        <ele>35.6</ele>
        <time>2019-08-04T11:35:08Z</time>
      </trkpt>
      <trkpt lat="51.229811037196" lon="4.413083509583">
        <ele>35.2</ele>
        <time>2019-08-04T11:35:24Z</time>
      </trkpt>
      <trkpt lat="51.229834087421" lon="4.413133549526">
        <ele>33.4</ele>
        <time>2019-08-04T11:35:28Z</time>
      </trkpt>
      <trkpt lat="51.229888234495" lon="4.414047847178">
        <ele>27.2</ele>
        <time>2019-08-04T11:35:45Z</time>
      </trkpt>
      <trkpt lat="51.229851186497" lon="4.414259573972">
        <ele>24.6</ele>
        <time>2019-08-04T11:35:48Z</time>
      </trkpt>
      <trkpt lat="51.229852443782" lon="4.414483119245">
        <ele>21.6</ele>
        <time>2019-08-04T11:35:51Z</time>
      </trkpt>
      <trkpt lat="51.229908686331" lon="4.415390376101">
        <ele>9.8</ele>
        <time>2019-08-04T11:36:04Z</time>
      </trkpt>
      <trkpt lat="51.229858059655" lon="4.416265362642">
        <ele>7</ele>
        <time>2019-08-04T11:36:17Z</time>
      </trkpt>
      <trkpt lat="51.229861580053" lon="4.416334513317">
        <ele>7</ele>
        <time>2019-08-04T11:36:18Z</time>
      </trkpt>
      <trkpt lat="51.229869207582" lon="4.416688900049">
        <ele>6</ele>
        <time>2019-08-04T11:36:23Z</time>
      </trkpt>
      <trkpt lat="51.229927880882" lon="4.417267502606">
        <ele>2.4</ele>
        <time>2019-08-04T11:36:31Z</time>
      </trkpt>
      <trkpt lat="51.230005581095" lon="4.417281668017">
        <ele>1.6</ele>
        <time>2019-08-04T11:36:33Z</time>
      </trkpt>
      <trkpt lat="51.230496676616" lon="4.41741301239">
        <ele>0</ele>
        <time>2019-08-04T11:36:51Z</time>
      </trkpt>
      <trkpt lat="51.230590470077" lon="4.417638820776">
        <ele>0</ele>
        <time>2019-08-04T11:36:57Z</time>
      </trkpt>
      <trkpt lat="51.230541184505" lon="4.418358406891">
        <ele>0</ele>
        <time>2019-08-04T11:37:10Z</time>
      </trkpt>
      <trkpt lat="51.230404559535" lon="4.418958048017">
        <ele>0</ele>
        <time>2019-08-04T11:37:17Z</time>
      </trkpt>
      <trkpt lat="51.23025158986" lon="4.419829262703">
        <ele>0</ele>
        <time>2019-08-04T11:37:27Z</time>
      </trkpt>
      <trkpt lat="51.230178834968" lon="4.420352628539">
        <ele>0</ele>
        <time>2019-08-04T11:37:33Z</time>
      </trkpt>
      <trkpt lat="51.230133572708" lon="4.421236583713">
        <ele>0</ele>
        <time>2019-08-04T11:37:43Z</time>
      </trkpt>
      <trkpt lat="51.23012753774" lon="4.422114839195">
        <ele>0</ele>
        <time>2019-08-04T11:37:52Z</time>
      </trkpt>
      <trkpt lat="51.230160897702" lon="4.423024023888">
        <ele>0</ele>
        <time>2019-08-04T11:38:01Z</time>
      </trkpt>
      <trkpt lat="51.230222085572" lon="4.423956426444">
        <ele>0</ele>
        <time>2019-08-04T11:38:12Z</time>
      </trkpt>
      <trkpt lat="51.230225689789" lon="4.424839711066">
        <ele>0</ele>
        <time>2019-08-04T11:38:23Z</time>
      </trkpt>
      <trkpt lat="51.23016693267" lon="4.425157804171">
        <ele>0</ele>
        <time>2019-08-04T11:38:27Z</time>
      </trkpt>
      <trkpt lat="51.229999713765" lon="4.42580580886">
        <ele>0</ele>
        <time>2019-08-04T11:38:36Z</time>
      </trkpt>
      <trkpt lat="51.229937603886" lon="4.425915527931">
        <ele>0</ele>
        <time>2019-08-04T11:38:38Z</time>
      </trkpt>
      <trkpt lat="51.229719423029" lon="4.426196489219">
        <ele>0</ele>
        <time>2019-08-04T11:38:44Z</time>
      </trkpt>
      <trkpt lat="51.229667874344" lon="4.426329845248">
        <ele>0</ele>
        <time>2019-08-04T11:38:46Z</time>
      </trkpt>
      <trkpt lat="51.22949721886" lon="4.427163341384">
        <ele>0</ele>
        <time>2019-08-04T11:38:58Z</time>
      </trkpt>
      <trkpt lat="51.229343997728" lon="4.428053163888">
        <ele>3.4</ele>
        <time>2019-08-04T11:39:11Z</time>
      </trkpt>
      <trkpt lat="51.229114920401" lon="4.428844331429">
        <ele>2.8</ele>
        <time>2019-08-04T11:39:24Z</time>
      </trkpt>
      <trkpt lat="51.228896991001" lon="4.42967657028">
        <ele>1.8</ele>
        <time>2019-08-04T11:39:37Z</time>
      </trkpt>
      <trkpt lat="51.22871854035" lon="4.430515514651">
        <ele>4</ele>
        <time>2019-08-04T11:39:50Z</time>
      </trkpt>
      <trkpt lat="51.228524247908" lon="4.431378766532">
        <ele>1.2</ele>
        <time>2019-08-04T11:40:02Z</time>
      </trkpt>
      <trkpt lat="51.228366416731" lon="4.432235731988">
        <ele>0</ele>
        <time>2019-08-04T11:40:14Z</time>
      </trkpt>
      <trkpt lat="51.228153935566" lon="4.433029917013">
        <ele>0</ele>
        <time>2019-08-04T11:40:26Z</time>
      </trkpt>
      <trkpt lat="51.228051676386" lon="4.433419675363">
        <ele>0</ele>
        <time>2019-08-04T11:40:32Z</time>
      </trkpt>
      <trkpt lat="51.228046395789" lon="4.433567699717">
        <ele>0</ele>
        <time>2019-08-04T11:40:34Z</time>
      </trkpt>
      <trkpt lat="51.228050335282" lon="4.433793424284">
        <ele>0</ele>
        <time>2019-08-04T11:40:37Z</time>
      </trkpt>
      <trkpt lat="51.228015801854" lon="4.434067512414">
        <ele>0</ele>
        <time>2019-08-04T11:40:41Z</time>
      </trkpt>
      <trkpt lat="51.227993422181" lon="4.434421815327">
        <ele>0.8</ele>
        <time>2019-08-04T11:40:46Z</time>
      </trkpt>
      <trkpt lat="51.227802901594" lon="4.434969823949">
        <ele>0</ele>
        <time>2019-08-04T11:40:54Z</time>
      </trkpt>
      <trkpt lat="51.227751520547" lon="4.435082309047">
        <ele>0</ele>
        <time>2019-08-04T11:40:56Z</time>
      </trkpt>
      <trkpt lat="51.227554964992" lon="4.435353714969">
        <ele>4.6</ele>
        <time>2019-08-04T11:41:02Z</time>
      </trkpt>
      <trkpt lat="51.22714358134" lon="4.435915134631">
        <ele>2.2</ele>
        <time>2019-08-04T11:41:17Z</time>
      </trkpt>
      <trkpt lat="51.22689044796" lon="4.43634101897">
        <ele>0</ele>
        <time>2019-08-04T11:41:26Z</time>
      </trkpt>
      <trkpt lat="51.226882233698" lon="4.436543944769">
        <ele>0</ele>
        <time>2019-08-04T11:41:29Z</time>
      </trkpt>
      <trkpt lat="51.226903859" lon="4.436681156472">
        <ele>0</ele>
        <time>2019-08-04T11:41:31Z</time>
      </trkpt>
      <trkpt lat="51.227062947462" lon="4.437313822284">
        <ele>0</ele>
        <time>2019-08-04T11:41:49Z</time>
      </trkpt>
      <trkpt lat="51.227359750541" lon="4.437844983287">
        <ele>0</ele>
        <time>2019-08-04T11:44:04Z</time>
      </trkpt>
      <trkpt lat="51.227399899842" lon="4.438609412567">
        <ele>0</ele>
        <time>2019-08-04T11:44:25Z</time>
      </trkpt>
      <trkpt lat="51.227721429526" lon="4.43930988795">
        <ele>0</ele>
        <time>2019-08-04T11:44:41Z</time>
      </trkpt>
      <trkpt lat="51.228011275628" lon="4.439840797496">
        <ele>0</ele>
        <time>2019-08-04T11:44:54Z</time>
      </trkpt>
      <trkpt lat="51.227732325996" lon="4.440301718177">
        <ele>0</ele>
        <time>2019-08-04T11:45:10Z</time>
      </trkpt>
      <trkpt lat="51.227741546086" lon="4.440290989345">
        <ele>0</ele>
        <time>2019-08-04T11:45:32Z</time>
      </trkpt>
      <trkpt lat="51.227769876908" lon="4.440339269089">
        <ele>0</ele>
        <time>2019-08-04T11:45:35Z</time>
      </trkpt>
      <trkpt lat="51.22816198219" lon="4.440970007064">
        <ele>0</ele>
        <time>2019-08-04T11:45:54Z</time>
      </trkpt>
      <trkpt lat="51.228453588491" lon="4.441525307939">
        <ele>0.6</ele>
        <time>2019-08-04T11:46:05Z</time>
      </trkpt>
      <trkpt lat="51.228869330731" lon="4.442168199669">
        <ele>0.6</ele>
        <time>2019-08-04T11:46:19Z</time>
      </trkpt>
      <trkpt lat="51.229271997207" lon="4.442774211039">
        <ele>0</ele>
        <time>2019-08-04T11:46:32Z</time>
      </trkpt>
      <trkpt lat="51.229500487801" lon="4.443539310871">
        <ele>0</ele>
        <time>2019-08-04T11:46:46Z</time>
      </trkpt>
      <trkpt lat="51.229678435538" lon="4.44433651338">
        <ele>0</ele>
        <time>2019-08-04T11:47:05Z</time>
      </trkpt>
      <trkpt lat="51.229995774272" lon="4.445096332615">
        <ele>1.8</ele>
        <time>2019-08-04T11:47:28Z</time>
      </trkpt>
      <trkpt lat="51.230211189102" lon="4.445957740478">
        <ele>4.2</ele>
        <time>2019-08-04T11:47:42Z</time>
      </trkpt>
      <trkpt lat="51.230350915375" lon="4.446379936781">
        <ele>3.2</ele>
        <time>2019-08-04T11:47:49Z</time>
      </trkpt>
      <trkpt lat="51.230570688793" lon="4.447180743507">
        <ele>9</ele>
        <time>2019-08-04T11:48:00Z</time>
      </trkpt>
      <trkpt lat="51.230817032834" lon="4.44802706395">
        <ele>10.6</ele>
        <time>2019-08-04T11:48:11Z</time>
      </trkpt>
      <trkpt lat="51.23100344629" lon="4.448842119906">
        <ele>8</ele>
        <time>2019-08-04T11:48:21Z</time>
      </trkpt>
      <trkpt lat="51.231179550009" lon="4.449737977378">
        <ele>7.2</ele>
        <time>2019-08-04T11:48:31Z</time>
      </trkpt>
      <trkpt lat="51.231329166924" lon="4.450571892609">
        <ele>5.4</ele>
        <time>2019-08-04T11:48:40Z</time>
      </trkpt>
      <trkpt lat="51.231483812979" lon="4.451409663514">
        <ele>4.4</ele>
        <time>2019-08-04T11:48:49Z</time>
      </trkpt>
      <trkpt lat="51.23164466164" lon="4.452331253419">
        <ele>2</ele>
        <time>2019-08-04T11:48:58Z</time>
      </trkpt>
      <trkpt lat="51.231786818664" lon="4.453197271327">
        <ele>0</ele>
        <time>2019-08-04T11:49:07Z</time>
      </trkpt>
      <trkpt lat="51.231927299308" lon="4.45405197367">
        <ele>0</ele>
        <time>2019-08-04T11:49:19Z</time>
      </trkpt>
      <trkpt lat="51.232083537924" lon="4.454914135904">
        <ele>0</ele>
        <time>2019-08-04T11:49:30Z</time>
      </trkpt>
      <trkpt lat="51.232247404069" lon="4.455772861559">
        <ele>0</ele>
        <time>2019-08-04T11:49:40Z</time>
      </trkpt>
      <trkpt lat="51.232389980188" lon="4.45650954675">
        <ele>0</ele>
        <time>2019-08-04T11:49:50Z</time>
      </trkpt>
      <trkpt lat="51.23243926576" lon="4.456899891833">
        <ele>0</ele>
        <time>2019-08-04T11:49:57Z</time>
      </trkpt>
      <trkpt lat="51.232393919681" lon="4.456930653406">
        <ele>0</ele>
        <time>2019-08-04T11:49:59Z</time>
      </trkpt>
      <trkpt lat="51.231896705373" lon="4.456422626447">
        <ele>0</ele>
        <time>2019-08-04T11:50:13Z</time>
      </trkpt>
      <trkpt lat="51.231573918404" lon="4.456243505244">
        <ele>0</ele>
        <time>2019-08-04T11:50:23Z</time>
      </trkpt>
      <trkpt lat="51.231355737547" lon="4.456455567314">
        <ele>0.6</ele>
        <time>2019-08-04T11:50:34Z</time>
      </trkpt>
      <trkpt lat="51.23125741786" lon="4.456367641183">
        <ele>6.2</ele>
        <time>2019-08-04T11:50:38Z</time>
      </trkpt>
      <trkpt lat="51.23128340175" lon="4.457252350728">
        <ele>0</ele>
        <time>2019-08-04T11:50:55Z</time>
      </trkpt>
      <trkpt lat="51.230876125229" lon="4.457608665297">
        <ele>0</ele>
        <time>2019-08-04T11:51:15Z</time>
      </trkpt>
      <trkpt lat="51.230314621748" lon="4.457703045491">
        <ele>0</ele>
        <time>2019-08-04T11:51:33Z</time>
      </trkpt>
      <trkpt lat="51.229836266715" lon="4.457992221041">
        <ele>2.4</ele>
        <time>2019-08-04T11:51:54Z</time>
      </trkpt>
      <trkpt lat="51.229837440181" lon="4.458000854398">
        <ele>3</ele>
        <time>2019-08-04T11:51:55Z</time>
      </trkpt>
      <trkpt lat="51.229880187871" lon="4.458039494957">
        <ele>4.2</ele>
        <time>2019-08-04T11:52:07Z</time>
      </trkpt>
      <trkpt lat="51.229894018006" lon="4.458071262358">
        <ele>2.8</ele>
        <time>2019-08-04T11:52:09Z</time>
      </trkpt>
      <trkpt lat="51.230067020422" lon="4.458920432647">
        <ele>0</ele>
        <time>2019-08-04T11:52:23Z</time>
      </trkpt>
      <trkpt lat="51.230155952381" lon="4.458963515613">
        <ele>0</ele>
        <time>2019-08-04T11:52:25Z</time>
      </trkpt>
      <trkpt lat="51.230267012556" lon="4.458956390998">
        <ele>0</ele>
        <time>2019-08-04T11:52:27Z</time>
      </trkpt>
      <trkpt lat="51.230368601184" lon="4.45893945956">
        <ele>0</ele>
        <time>2019-08-04T11:52:29Z</time>
      </trkpt>
      <trkpt lat="51.230466250319" lon="4.458968377115">
        <ele>0</ele>
        <time>2019-08-04T11:52:31Z</time>
      </trkpt>
      <trkpt lat="51.230516374081" lon="4.459088322104">
        <ele>0</ele>
        <time>2019-08-04T11:52:33Z</time>
      </trkpt>
      <trkpt lat="51.230598432882" lon="4.459612945225">
        <ele>0</ele>
        <time>2019-08-04T11:52:40Z</time>
      </trkpt>
      <trkpt lat="51.230705218288" lon="4.460519866805">
        <ele>0</ele>
        <time>2019-08-04T11:52:51Z</time>
      </trkpt>
      <trkpt lat="51.230694824732" lon="4.460605026909">
        <ele>0</ele>
        <time>2019-08-04T11:52:52Z</time>
      </trkpt>
      <trkpt lat="51.230622740392" lon="4.460737796205">
        <ele>0</ele>
        <time>2019-08-04T11:52:54Z</time>
      </trkpt>
      <trkpt lat="51.230526097085" lon="4.460810802554">
        <ele>0</ele>
        <time>2019-08-04T11:52:56Z</time>
      </trkpt>
      <trkpt lat="51.229994936082" lon="4.460966119161">
        <ele>0</ele>
        <time>2019-08-04T11:53:04Z</time>
      </trkpt>
      <trkpt lat="51.229814641413" lon="4.461024121909">
        <ele>0</ele>
        <time>2019-08-04T11:53:07Z</time>
      </trkpt>
      <trkpt lat="51.22974699948" lon="4.461129482392">
        <ele>0</ele>
        <time>2019-08-04T11:53:09Z</time>
      </trkpt>
      <trkpt lat="51.229733672259" lon="4.461276500918">
        <ele>0</ele>
        <time>2019-08-04T11:53:11Z</time>
      </trkpt>
      <trkpt lat="51.229786059134" lon="4.461434415914">
        <ele>0</ele>
        <time>2019-08-04T11:53:13Z</time>
      </trkpt>
      <trkpt lat="51.230061236911" lon="4.462221476324">
        <ele>0</ele>
        <time>2019-08-04T11:53:23Z</time>
      </trkpt>
      <trkpt lat="51.230323841838" lon="4.463045081818">
        <ele>0</ele>
        <time>2019-08-04T11:53:33Z</time>
      </trkpt>
      <trkpt lat="51.230559289409" lon="4.463853432254">
        <ele>0</ele>
        <time>2019-08-04T11:53:43Z</time>
      </trkpt>
      <trkpt lat="51.230803286518" lon="4.464726574777">
        <ele>0</ele>
        <time>2019-08-04T11:53:54Z</time>
      </trkpt>
      <trkpt lat="51.230864642026" lon="4.46559636454">
        <ele>0</ele>
        <time>2019-08-04T11:54:04Z</time>
      </trkpt>
      <trkpt lat="51.23080395707" lon="4.466460873706">
        <ele>0</ele>
        <time>2019-08-04T11:54:13Z</time>
      </trkpt>
      <trkpt lat="51.230811333142" lon="4.467342565767">
        <ele>0</ele>
        <time>2019-08-04T11:54:24Z</time>
      </trkpt>
      <trkpt lat="51.230874951763" lon="4.467415320659">
        <ele>0</ele>
        <time>2019-08-04T11:54:26Z</time>
      </trkpt>
      <trkpt lat="51.230968409948" lon="4.467443483843">
        <ele>0</ele>
        <time>2019-08-04T11:54:28Z</time>
      </trkpt>
      <trkpt lat="51.231075782087" lon="4.467418673419">
        <ele>0</ele>
        <time>2019-08-04T11:54:30Z</time>
      </trkpt>
      <trkpt lat="51.231615576447" lon="4.467368884933">
        <ele>0</ele>
        <time>2019-08-04T11:54:38Z</time>
      </trkpt>
      <trkpt lat="51.232158053015" lon="4.467610870386">
        <ele>0.4</ele>
        <time>2019-08-04T11:54:47Z</time>
      </trkpt>
      <trkpt lat="51.232255953607" lon="4.46774129275">
        <ele>1</ele>
        <time>2019-08-04T11:54:49Z</time>
      </trkpt>
      <trkpt lat="51.232573208522" lon="4.468452413146">
        <ele>6.6</ele>
        <time>2019-08-04T11:54:58Z</time>
      </trkpt>
      <trkpt lat="51.232909238893" lon="4.469140399498">
        <ele>10.6</ele>
        <time>2019-08-04T11:55:08Z</time>
      </trkpt>
      <trkpt lat="51.233234959527" lon="4.469851771351">
        <ele>10</ele>
        <time>2019-08-04T11:55:18Z</time>
      </trkpt>
      <trkpt lat="51.233571325174" lon="4.470608908378">
        <ele>0.6</ele>
        <time>2019-08-04T11:55:28Z</time>
      </trkpt>
      <trkpt lat="51.233918000558" lon="4.471281052939">
        <ele>0</ele>
        <time>2019-08-04T11:55:37Z</time>
      </trkpt>
      <trkpt lat="51.234222431166" lon="4.471996280466">
        <ele>0</ele>
        <time>2019-08-04T11:55:46Z</time>
      </trkpt>
      <trkpt lat="51.23454312266" lon="4.472691726709">
        <ele>0</ele>
        <time>2019-08-04T11:55:55Z</time>
      </trkpt>
      <trkpt lat="51.234843949051" lon="4.473486163191">
        <ele>2.2</ele>
        <time>2019-08-04T11:56:05Z</time>
      </trkpt>
      <trkpt lat="51.234947214059" lon="4.473698895813">
        <ele>0.8</ele>
        <time>2019-08-04T11:56:08Z</time>
      </trkpt>
      <trkpt lat="51.235036648932" lon="4.47381565568">
        <ele>0</ele>
        <time>2019-08-04T11:56:10Z</time>
      </trkpt>
      <trkpt lat="51.235181991078" lon="4.473989077191">
        <ele>0</ele>
        <time>2019-08-04T11:56:13Z</time>
      </trkpt>
      <trkpt lat="51.235251728486" lon="4.474124444876">
        <ele>0.2</ele>
        <time>2019-08-04T11:56:15Z</time>
      </trkpt>
      <trkpt lat="51.235473010646" lon="4.474959533573">
        <ele>0</ele>
        <time>2019-08-04T11:56:26Z</time>
      </trkpt>
      <trkpt lat="51.235700327774" lon="4.475750449657">
        <ele>2</ele>
        <time>2019-08-04T11:56:36Z</time>
      </trkpt>
      <trkpt lat="51.23590266684" lon="4.476582185594">
        <ele>5.6</ele>
        <time>2019-08-04T11:56:46Z</time>
      </trkpt>
      <trkpt lat="51.236160745541" lon="4.477351811652">
        <ele>4.4</ele>
        <time>2019-08-04T11:56:55Z</time>
      </trkpt>
      <trkpt lat="51.236180023911" lon="4.477442922905">
        <ele>4.4</ele>
        <time>2019-08-04T11:56:56Z</time>
      </trkpt>
      <trkpt lat="51.236242888161" lon="4.478391670166">
        <ele>0</ele>
        <time>2019-08-04T11:57:05Z</time>
      </trkpt>
      <trkpt lat="51.236248084939" lon="4.478915036002">
        <ele>0</ele>
        <time>2019-08-04T11:57:10Z</time>
      </trkpt>
      <trkpt lat="51.236150938718" lon="4.479789016715">
        <ele>0</ele>
        <time>2019-08-04T11:57:19Z</time>
      </trkpt>
      <trkpt lat="51.236059073094" lon="4.480659979944">
        <ele>0</ele>
        <time>2019-08-04T11:57:29Z</time>
      </trkpt>
      <trkpt lat="51.236026970417" lon="4.481599758572">
        <ele>0</ele>
        <time>2019-08-04T11:57:39Z</time>
      </trkpt>
      <trkpt lat="51.236011044807" lon="4.482534172784">
        <ele>0</ele>
        <time>2019-08-04T11:57:49Z</time>
      </trkpt>
      <trkpt lat="51.23602252801" lon="4.483399352502">
        <ele>0</ele>
        <time>2019-08-04T11:57:58Z</time>
      </trkpt>
      <trkpt lat="51.23604013" lon="4.484339634044">
        <ele>0</ele>
        <time>2019-08-04T11:58:08Z</time>
      </trkpt>
      <trkpt lat="51.236031580462" lon="4.484508026415">
        <ele>0</ele>
        <time>2019-08-04T11:58:10Z</time>
      </trkpt>
      <trkpt lat="51.235971985153" lon="4.484921002628">
        <ele>0</ele>
        <time>2019-08-04T11:58:15Z</time>
      </trkpt>
      <trkpt lat="51.235979277406" lon="4.48507841471">
        <ele>0</ele>
        <time>2019-08-04T11:58:17Z</time>
      </trkpt>
      <trkpt lat="51.236040297638" lon="4.485316712127">
        <ele>0</ele>
        <time>2019-08-04T11:58:20Z</time>
      </trkpt>
      <trkpt lat="51.236065527157" lon="4.486201756948">
        <ele>0</ele>
        <time>2019-08-04T11:58:30Z</time>
      </trkpt>
      <trkpt lat="51.236087403916" lon="4.487147570544">
        <ele>0</ele>
        <time>2019-08-04T11:58:41Z</time>
      </trkpt>
      <trkpt lat="51.236118752222" lon="4.488060443273">
        <ele>0</ele>
        <time>2019-08-04T11:58:51Z</time>
      </trkpt>
      <trkpt lat="51.236135180746" lon="4.488791177315">
        <ele>0</ele>
        <time>2019-08-04T11:58:59Z</time>
      </trkpt>
      <trkpt lat="51.236102742793" lon="4.489547895247">
        <ele>0</ele>
        <time>2019-08-04T11:59:08Z</time>
      </trkpt>
      <trkpt lat="51.236101150232" lon="4.489907059662">
        <ele>0</ele>
        <time>2019-08-04T11:59:16Z</time>
      </trkpt>
      <trkpt lat="51.23610131787" lon="4.490051982713">
        <ele>0</ele>
        <time>2019-08-04T11:59:37Z</time>
      </trkpt>
      <trkpt lat="51.23590853417" lon="4.49092898091">
        <ele>0</ele>
        <time>2019-08-04T11:59:52Z</time>
      </trkpt>
      <trkpt lat="51.235677277549" lon="4.491805476193">
        <ele>0</ele>
        <time>2019-08-04T12:00:03Z</time>
      </trkpt>
      <trkpt lat="51.235452307353" lon="4.492598990666">
        <ele>0.8</ele>
        <time>2019-08-04T12:00:13Z</time>
      </trkpt>
      <trkpt lat="51.235230019365" lon="4.493439527598">
        <ele>2.2</ele>
        <time>2019-08-04T12:00:23Z</time>
      </trkpt>
      <trkpt lat="51.234990548482" lon="4.494283584928">
        <ele>0</ele>
        <time>2019-08-04T12:00:33Z</time>
      </trkpt>
      <trkpt lat="51.234729117021" lon="4.495123702765">
        <ele>0</ele>
        <time>2019-08-04T12:00:43Z</time>
      </trkpt>
      <trkpt lat="51.234497692762" lon="4.495935908875">
        <ele>0</ele>
        <time>2019-08-04T12:00:52Z</time>
      </trkpt>
      <trkpt lat="51.234250929626" lon="4.496752557392">
        <ele>0</ele>
        <time>2019-08-04T12:01:01Z</time>
      </trkpt>
      <trkpt lat="51.234006597241" lon="4.497625448458">
        <ele>0</ele>
        <time>2019-08-04T12:01:11Z</time>
      </trkpt>
      <trkpt lat="51.233722450831" lon="4.498452322893">
        <ele>0</ele>
        <time>2019-08-04T12:01:21Z</time>
      </trkpt>
      <trkpt lat="51.233379044388" lon="4.499164449117">
        <ele>0</ele>
        <time>2019-08-04T12:01:32Z</time>
      </trkpt>
      <trkpt lat="51.232999344318" lon="4.499848663614">
        <ele>0</ele>
        <time>2019-08-04T12:01:43Z</time>
      </trkpt>
      <trkpt lat="51.232618135506" lon="4.500576631629">
        <ele>1.4</ele>
        <time>2019-08-04T12:01:54Z</time>
      </trkpt>
      <trkpt lat="51.232258132901" lon="4.501279873039">
        <ele>1.2</ele>
        <time>2019-08-04T12:02:04Z</time>
      </trkpt>
      <trkpt lat="51.23189192769" lon="4.501951766143">
        <ele>0.2</ele>
        <time>2019-08-04T12:02:14Z</time>
      </trkpt>
      <trkpt lat="51.231794027098" lon="4.502026448872">
        <ele>0</ele>
        <time>2019-08-04T12:02:16Z</time>
      </trkpt>
      <trkpt lat="51.231693779574" lon="4.502091324778">
        <ele>0</ele>
        <time>2019-08-04T12:02:18Z</time>
      </trkpt>
      <trkpt lat="51.231643907269" lon="4.502195427976">
        <ele>0</ele>
        <time>2019-08-04T12:02:20Z</time>
      </trkpt>
      <trkpt lat="51.231581462114" lon="4.50273069611">
        <ele>6.8</ele>
        <time>2019-08-04T12:02:35Z</time>
      </trkpt>
      <trkpt lat="51.231534691112" lon="4.503095224941">
        <ele>5</ele>
        <time>2019-08-04T12:02:42Z</time>
      </trkpt>
      <trkpt lat="51.231386080025" lon="4.503520187271">
        <ele>1.4</ele>
        <time>2019-08-04T12:02:51Z</time>
      </trkpt>
      <trkpt lat="51.231457158537" lon="4.503492862277">
        <ele>4.6</ele>
        <time>2019-08-04T12:04:05Z</time>
      </trkpt>
      <trkpt lat="51.231298321532" lon="4.503939282271">
        <ele>3.4</ele>
        <time>2019-08-04T12:04:14Z</time>
      </trkpt>
      <trkpt lat="51.231158846716" lon="4.504784596886">
        <ele>0.2</ele>
        <time>2019-08-04T12:04:25Z</time>
      </trkpt>
      <trkpt lat="51.230969667233" lon="4.505621194325">
        <ele>0</ele>
        <time>2019-08-04T12:04:35Z</time>
      </trkpt>
      <trkpt lat="51.230693651266" lon="4.506378163714">
        <ele>0</ele>
        <time>2019-08-04T12:04:45Z</time>
      </trkpt>
      <trkpt lat="51.230479912816" lon="4.507211576031">
        <ele>0</ele>
        <time>2019-08-04T12:04:55Z</time>
      </trkpt>
      <trkpt lat="51.230340605638" lon="4.507983800478">
        <ele>0</ele>
        <time>2019-08-04T12:05:04Z</time>
      </trkpt>
      <trkpt lat="51.230159640417" lon="4.508792234733">
        <ele>0</ele>
        <time>2019-08-04T12:05:14Z</time>
      </trkpt>
      <trkpt lat="51.229988649657" lon="4.509667388912">
        <ele>0.2</ele>
        <time>2019-08-04T12:05:24Z</time>
      </trkpt>
      <trkpt lat="51.229898544232" lon="4.510075838899">
        <ele>0.2</ele>
        <time>2019-08-04T12:05:29Z</time>
      </trkpt>
      <trkpt lat="51.229768624782" lon="4.510763992889">
        <ele>0</ele>
        <time>2019-08-04T12:05:37Z</time>
      </trkpt>
      <trkpt lat="51.229744568729" lon="4.511024753798">
        <ele>0</ele>
        <time>2019-08-04T12:05:40Z</time>
      </trkpt>
      <trkpt lat="51.229702826867" lon="4.5111972533">
        <ele>0</ele>
        <time>2019-08-04T12:05:42Z</time>
      </trkpt>
      <trkpt lat="51.22955589216" lon="4.511798067892">
        <ele>0.8</ele>
        <time>2019-08-04T12:05:49Z</time>
      </trkpt>
      <trkpt lat="51.229527728976" lon="4.511969896842">
        <ele>0</ele>
        <time>2019-08-04T12:05:51Z</time>
      </trkpt>
      <trkpt lat="51.229307033549" lon="4.512792161232">
        <ele>0</ele>
        <time>2019-08-04T12:06:02Z</time>
      </trkpt>
      <trkpt lat="51.229127912346" lon="4.513602271867">
        <ele>0</ele>
        <time>2019-08-04T12:06:12Z</time>
      </trkpt>
      <trkpt lat="51.228918616303" lon="4.514461751893">
        <ele>0</ele>
        <time>2019-08-04T12:06:24Z</time>
      </trkpt>
      <trkpt lat="51.228749385742" lon="4.515313352933">
        <ele>0</ele>
        <time>2019-08-04T12:06:34Z</time>
      </trkpt>
      <trkpt lat="51.228700435446" lon="4.515576041679">
        <ele>0</ele>
        <time>2019-08-04T12:06:37Z</time>
      </trkpt>
      <trkpt lat="51.228670847339" lon="4.515843005194">
        <ele>0</ele>
        <time>2019-08-04T12:06:40Z</time>
      </trkpt>
      <trkpt lat="51.228488960109" lon="4.51670499979">
        <ele>0</ele>
        <time>2019-08-04T12:06:50Z</time>
      </trkpt>
      <trkpt lat="51.228434561578" lon="4.516864674985">
        <ele>0</ele>
        <time>2019-08-04T12:06:52Z</time>
      </trkpt>
      <trkpt lat="51.228315035684" lon="4.517102972402">
        <ele>0</ele>
        <time>2019-08-04T12:06:55Z</time>
      </trkpt>
      <trkpt lat="51.228006246488" lon="4.517808979839">
        <ele>2.8</ele>
        <time>2019-08-04T12:07:04Z</time>
      </trkpt>
      <trkpt lat="51.227701396785" lon="4.518618336103">
        <ele>5.2</ele>
        <time>2019-08-04T12:07:15Z</time>
      </trkpt>
      <trkpt lat="51.227454298373" lon="4.519231891183">
        <ele>1.6</ele>
        <time>2019-08-04T12:07:24Z</time>
      </trkpt>
      <trkpt lat="51.227335107755" lon="4.519372288008">
        <ele>0</ele>
        <time>2019-08-04T12:07:27Z</time>
      </trkpt>
      <trkpt lat="51.227198985699" lon="4.5198641379">
        <ele>0</ele>
        <time>2019-08-04T12:07:36Z</time>
      </trkpt>
      <trkpt lat="51.227345166035" lon="4.520743650667">
        <ele>3.2</ele>
        <time>2019-08-04T12:07:47Z</time>
      </trkpt>
      <trkpt lat="51.22741264033" lon="4.521664150925">
        <ele>18</ele>
        <time>2019-08-04T12:07:56Z</time>
      </trkpt>
      <trkpt lat="51.227543146513" lon="4.522556320361">
        <ele>16.4</ele>
        <time>2019-08-04T12:08:05Z</time>
      </trkpt>
      <trkpt lat="51.227705420097" lon="4.523463912493">
        <ele>17</ele>
        <time>2019-08-04T12:08:15Z</time>
      </trkpt>
      <trkpt lat="51.227920415832" lon="4.524334288989">
        <ele>14.4</ele>
        <time>2019-08-04T12:08:25Z</time>
      </trkpt>
      <trkpt lat="51.228095346085" lon="4.525172143713">
        <ele>10</ele>
        <time>2019-08-04T12:08:34Z</time>
      </trkpt>
      <trkpt lat="51.228247645208" lon="4.526073700877">
        <ele>1.8</ele>
        <time>2019-08-04T12:08:44Z</time>
      </trkpt>
      <trkpt lat="51.228392819716" lon="4.526958326603">
        <ele>0</ele>
        <time>2019-08-04T12:08:54Z</time>
      </trkpt>
      <trkpt lat="51.228540173518" lon="4.52788058706">
        <ele>0</ele>
        <time>2019-08-04T12:09:05Z</time>
      </trkpt>
      <trkpt lat="51.228488792471" lon="4.528830088692">
        <ele>0</ele>
        <time>2019-08-04T12:09:15Z</time>
      </trkpt>
      <trkpt lat="51.228486277901" lon="4.529114821835">
        <ele>0</ele>
        <time>2019-08-04T12:09:18Z</time>
      </trkpt>
      <trkpt lat="51.228466580436" lon="4.529573395584">
        <ele>0</ele>
        <time>2019-08-04T12:09:23Z</time>
      </trkpt>
      <trkpt lat="51.228400782521" lon="4.529833653579">
        <ele>0</ele>
        <time>2019-08-04T12:09:26Z</time>
      </trkpt>
      <trkpt lat="51.228362728695" lon="4.530101371465">
        <ele>0</ele>
        <time>2019-08-04T12:09:29Z</time>
      </trkpt>
      <trkpt lat="51.228312772571" lon="4.530528848365">
        <ele>0</ele>
        <time>2019-08-04T12:09:34Z</time>
      </trkpt>
      <trkpt lat="51.228273880555" lon="4.530695983451">
        <ele>0</ele>
        <time>2019-08-04T12:09:36Z</time>
      </trkpt>
      <trkpt lat="51.228054190956" lon="4.53123083249">
        <ele>0</ele>
        <time>2019-08-04T12:09:46Z</time>
      </trkpt>
      <trkpt lat="51.227892001191" lon="4.532076985295">
        <ele>0</ele>
        <time>2019-08-04T12:10:06Z</time>
      </trkpt>
      <trkpt lat="51.227787814174" lon="4.532963035944">
        <ele>0</ele>
        <time>2019-08-04T12:10:22Z</time>
      </trkpt>
      <trkpt lat="51.227781276292" lon="4.533167219028">
        <ele>0</ele>
        <time>2019-08-04T12:10:25Z</time>
      </trkpt>
      <trkpt lat="51.227946232084" lon="4.534040948284">
        <ele>0</ele>
        <time>2019-08-04T12:10:38Z</time>
      </trkpt>
      <trkpt lat="51.228370775319" lon="4.534659197228">
        <ele>3</ele>
        <time>2019-08-04T12:10:48Z</time>
      </trkpt>
      <trkpt lat="51.228609994745" lon="4.534894393342">
        <ele>3.2</ele>
        <time>2019-08-04T12:10:52Z</time>
      </trkpt>
      <trkpt lat="51.228698675247" lon="4.535066725206">
        <ele>3</ele>
        <time>2019-08-04T12:10:54Z</time>
      </trkpt>
      <trkpt lat="51.228746284439" lon="4.53529353942">
        <ele>2.4</ele>
        <time>2019-08-04T12:10:56Z</time>
      </trkpt>
      <trkpt lat="51.228730610286" lon="4.535538877633">
        <ele>0.8</ele>
        <time>2019-08-04T12:10:58Z</time>
      </trkpt>
      <trkpt lat="51.228570264539" lon="4.536374553063">
        <ele>0.8</ele>
        <time>2019-08-04T12:11:05Z</time>
      </trkpt>
      <trkpt lat="51.228420815262" lon="4.537276110227">
        <ele>0</ele>
        <time>2019-08-04T12:11:13Z</time>
      </trkpt>
      <trkpt lat="51.228255440375" lon="4.538172219156">
        <ele>0</ele>
        <time>2019-08-04T12:11:21Z</time>
      </trkpt>
      <trkpt lat="51.228141446535" lon="4.539083666962">
        <ele>0</ele>
        <time>2019-08-04T12:11:30Z</time>
      </trkpt>
      <trkpt lat="51.228107751297" lon="4.539990337085">
        <ele>0</ele>
        <time>2019-08-04T12:11:39Z</time>
      </trkpt>
      <trkpt lat="51.228089646393" lon="4.54064705895">
        <ele>2.4</ele>
        <time>2019-08-04T12:11:46Z</time>
      </trkpt>
      <trkpt lat="51.228090819859" lon="4.541582227533">
        <ele>5.6</ele>
        <time>2019-08-04T12:11:57Z</time>
      </trkpt>
      <trkpt lat="51.228104733813" lon="4.541668980198">
        <ele>5.6</ele>
        <time>2019-08-04T12:11:58Z</time>
      </trkpt>
      <trkpt lat="51.228173213936" lon="4.541994365556">
        <ele>4.2</ele>
        <time>2019-08-04T12:12:02Z</time>
      </trkpt>
      <trkpt lat="51.228391059517" lon="4.542805146743">
        <ele>0</ele>
        <time>2019-08-04T12:12:13Z</time>
      </trkpt>
      <trkpt lat="51.228637403558" lon="4.543604696184">
        <ele>5</ele>
        <time>2019-08-04T12:12:23Z</time>
      </trkpt>
      <trkpt lat="51.228884418151" lon="4.544397875381">
        <ele>5.6</ele>
        <time>2019-08-04T12:12:33Z</time>
      </trkpt>
      <trkpt lat="51.22905381635" lon="4.544861729727">
        <ele>7.4</ele>
        <time>2019-08-04T12:12:39Z</time>
      </trkpt>
      <trkpt lat="51.229224974748" lon="4.545364308451">
        <ele>4.8</ele>
        <time>2019-08-04T12:12:46Z</time>
      </trkpt>
      <trkpt lat="51.22925414376" lon="4.545509231502">
        <ele>3.4</ele>
        <time>2019-08-04T12:12:48Z</time>
      </trkpt>
      <trkpt lat="51.22948129325" lon="4.546390420649">
        <ele>4.2</ele>
        <time>2019-08-04T12:12:58Z</time>
      </trkpt>
      <trkpt lat="51.229711041129" lon="4.547217295084">
        <ele>6.8</ele>
        <time>2019-08-04T12:13:07Z</time>
      </trkpt>
      <trkpt lat="51.22992721033" lon="4.548022041303">
        <ele>7.8</ele>
        <time>2019-08-04T12:13:17Z</time>
      </trkpt>
      <trkpt lat="51.23015100706" lon="4.548830727015">
        <ele>12.6</ele>
        <time>2019-08-04T12:13:28Z</time>
      </trkpt>
      <trkpt lat="51.230180678986" lon="4.548935584584">
        <ele>11.6</ele>
        <time>2019-08-04T12:13:29Z</time>
      </trkpt>
      <trkpt lat="51.230392741056" lon="4.549733206188">
        <ele>9.2</ele>
        <time>2019-08-04T12:13:37Z</time>
      </trkpt>
      <trkpt lat="51.230601198909" lon="4.550557063139">
        <ele>5.8</ele>
        <time>2019-08-04T12:13:46Z</time>
      </trkpt>
      <trkpt lat="51.230844776923" lon="4.551341692798">
        <ele>9.4</ele>
        <time>2019-08-04T12:13:56Z</time>
      </trkpt>
      <trkpt lat="51.231110147877" lon="4.55218809706">
        <ele>5.2</ele>
        <time>2019-08-04T12:14:06Z</time>
      </trkpt>
      <trkpt lat="51.231360012316" lon="4.553000219351">
        <ele>0</ele>
        <time>2019-08-04T12:14:16Z</time>
      </trkpt>
      <trkpt lat="51.231626305279" lon="4.553791386892">
        <ele>0</ele>
        <time>2019-08-04T12:14:27Z</time>
      </trkpt>
      <trkpt lat="51.231858819185" lon="4.554604766468">
        <ele>0</ele>
        <time>2019-08-04T12:14:37Z</time>
      </trkpt>
      <trkpt lat="51.232056045292" lon="4.555434155473">
        <ele>4.4</ele>
        <time>2019-08-04T12:14:46Z</time>
      </trkpt>
      <trkpt lat="51.232488383694" lon="4.556857485912">
        <ele>0</ele>
        <time>2019-08-04T12:15:03Z</time>
      </trkpt>
      <trkpt lat="51.232690219846" lon="4.55768746165">
        <ele>0</ele>
        <time>2019-08-04T12:15:12Z</time>
      </trkpt>
      <trkpt lat="51.232933462584" lon="4.558480892304">
        <ele>1.4</ele>
        <time>2019-08-04T12:15:21Z</time>
      </trkpt>
      <trkpt lat="51.233178800797" lon="4.55928840455">
        <ele>1.8</ele>
        <time>2019-08-04T12:15:31Z</time>
      </trkpt>
      <trkpt lat="51.233420618612" lon="4.560137239563">
        <ele>3.4</ele>
        <time>2019-08-04T12:15:42Z</time>
      </trkpt>
      <trkpt lat="51.233661765875" lon="4.560962353799">
        <ele>4</ele>
        <time>2019-08-04T12:15:52Z</time>
      </trkpt>
      <trkpt lat="51.233901320577" lon="4.561786629845">
        <ele>3</ele>
        <time>2019-08-04T12:16:02Z</time>
      </trkpt>
      <trkpt lat="51.233979439885" lon="4.5620083311">
        <ele>2.6</ele>
        <time>2019-08-04T12:16:05Z</time>
      </trkpt>
      <trkpt lat="51.234192004869" lon="4.562842749245">
        <ele>3</ele>
        <time>2019-08-04T12:16:15Z</time>
      </trkpt>
      <trkpt lat="51.234451927588" lon="4.56362100866">
        <ele>1.8</ele>
        <time>2019-08-04T12:16:25Z</time>
      </trkpt>
      <trkpt lat="51.234737498921" lon="4.564441345213">
        <ele>0</ele>
        <time>2019-08-04T12:16:35Z</time>
      </trkpt>
      <trkpt lat="51.23479625604" lon="4.564691796385">
        <ele>0</ele>
        <time>2019-08-04T12:16:38Z</time>
      </trkpt>
      <trkpt lat="51.235049724696" lon="4.565509366911">
        <ele>0</ele>
        <time>2019-08-04T12:16:49Z</time>
      </trkpt>
      <trkpt lat="51.235299086221" lon="4.566284022109">
        <ele>0</ele>
        <time>2019-08-04T12:16:58Z</time>
      </trkpt>
      <trkpt lat="51.235530426661" lon="4.567102933739">
        <ele>0</ele>
        <time>2019-08-04T12:17:08Z</time>
      </trkpt>
      <trkpt lat="51.235796719624" lon="4.567870548141">
        <ele>0</ele>
        <time>2019-08-04T12:17:18Z</time>
      </trkpt>
      <trkpt lat="51.236054546868" lon="4.568655596895">
        <ele>0</ele>
        <time>2019-08-04T12:17:28Z</time>
      </trkpt>
      <trkpt lat="51.236172480201" lon="4.569023227029">
        <ele>0</ele>
        <time>2019-08-04T12:17:33Z</time>
      </trkpt>
      <trkpt lat="51.236249090767" lon="4.569223051525">
        <ele>0</ele>
        <time>2019-08-04T12:17:36Z</time>
      </trkpt>
      <trkpt lat="51.236506834192" lon="4.570022181871">
        <ele>0</ele>
        <time>2019-08-04T12:17:47Z</time>
      </trkpt>
      <trkpt lat="51.236676567667" lon="4.570712682793">
        <ele>0</ele>
        <time>2019-08-04T12:17:55Z</time>
      </trkpt>
      <trkpt lat="51.236784191263" lon="4.571174525483">
        <ele>0</ele>
        <time>2019-08-04T12:18:00Z</time>
      </trkpt>
      <trkpt lat="51.236986949424" lon="4.572077926665">
        <ele>0</ele>
        <time>2019-08-04T12:18:10Z</time>
      </trkpt>
      <trkpt lat="51.237204543548" lon="4.572956265966">
        <ele>3.2</ele>
        <time>2019-08-04T12:18:20Z</time>
      </trkpt>
      <trkpt lat="51.237431860676" lon="4.57376143128">
        <ele>5.8</ele>
        <time>2019-08-04T12:18:30Z</time>
      </trkpt>
      <trkpt lat="51.237644928574" lon="4.574637842744">
        <ele>16.4</ele>
        <time>2019-08-04T12:18:40Z</time>
      </trkpt>
      <trkpt lat="51.237857409739" lon="4.575481564798">
        <ele>9</ele>
        <time>2019-08-04T12:18:50Z</time>
      </trkpt>
      <trkpt lat="51.238088833998" lon="4.576263763706">
        <ele>8.2</ele>
        <time>2019-08-04T12:19:00Z</time>
      </trkpt>
      <trkpt lat="51.238296202204" lon="4.577060798577">
        <ele>1.8</ele>
        <time>2019-08-04T12:19:10Z</time>
      </trkpt>
      <trkpt lat="51.238402652334" lon="4.577527921864">
        <ele>0.2</ele>
        <time>2019-08-04T12:19:16Z</time>
      </trkpt>
      <trkpt lat="51.238481609832" lon="4.577764459082">
        <ele>0</ele>
        <time>2019-08-04T12:19:19Z</time>
      </trkpt>
      <trkpt lat="51.238727618597" lon="4.578537773176">
        <ele>0</ele>
        <time>2019-08-04T12:19:29Z</time>
      </trkpt>
      <trkpt lat="51.23879358415" lon="4.578769448892">
        <ele>0</ele>
        <time>2019-08-04T12:19:32Z</time>
      </trkpt>
      <trkpt lat="51.238929454749" lon="4.579143616908">
        <ele>12</ele>
        <time>2019-08-04T12:19:48Z</time>
      </trkpt>
      <trkpt lat="51.239176888437" lon="4.580008796626">
        <ele>5.4</ele>
        <time>2019-08-04T12:20:00Z</time>
      </trkpt>
      <trkpt lat="51.239471176946" lon="4.580792252819">
        <ele>0</ele>
        <time>2019-08-04T12:20:10Z</time>
      </trkpt>
      <trkpt lat="51.239809554249" lon="4.581539666842">
        <ele>0</ele>
        <time>2019-08-04T12:20:21Z</time>
      </trkpt>
      <trkpt lat="51.240174585994" lon="4.582219941846">
        <ele>0</ele>
        <time>2019-08-04T12:20:30Z</time>
      </trkpt>
      <trkpt lat="51.240569541122" lon="4.582904826895">
        <ele>9.4</ele>
        <time>2019-08-04T12:20:39Z</time>
      </trkpt>
      <trkpt lat="51.240902051095" lon="4.5836755426">
        <ele>13.4</ele>
        <time>2019-08-04T12:20:49Z</time>
      </trkpt>
      <trkpt lat="51.241167254411" lon="4.584425974107">
        <ele>10.4</ele>
        <time>2019-08-04T12:20:57Z</time>
      </trkpt>
      <trkpt lat="51.241440252894" lon="4.585259889338">
        <ele>0.6</ele>
        <time>2019-08-04T12:21:07Z</time>
      </trkpt>
      <trkpt lat="51.241755663791" lon="4.585967237879">
        <ele>1.8</ele>
        <time>2019-08-04T12:21:16Z</time>
      </trkpt>
      <trkpt lat="51.242085407737" lon="4.586754968841">
        <ele>0</ele>
        <time>2019-08-04T12:21:26Z</time>
      </trkpt>
      <trkpt lat="51.242375840572" lon="4.587541107242">
        <ele>3.4</ele>
        <time>2019-08-04T12:21:36Z</time>
      </trkpt>
      <trkpt lat="51.242695023324" lon="4.588306709988">
        <ele>6.2</ele>
        <time>2019-08-04T12:21:45Z</time>
      </trkpt>
      <trkpt lat="51.242996184991" lon="4.589044903921">
        <ele>7</ele>
        <time>2019-08-04T12:21:54Z</time>
      </trkpt>
      <trkpt lat="51.243302962531" lon="4.589754012661">
        <ele>8.6</ele>
        <time>2019-08-04T12:22:03Z</time>
      </trkpt>
      <trkpt lat="51.243610578261" lon="4.59056714078">
        <ele>9.4</ele>
        <time>2019-08-04T12:22:13Z</time>
      </trkpt>
      <trkpt lat="51.243934119601" lon="4.591312878423">
        <ele>8</ele>
        <time>2019-08-04T12:22:23Z</time>
      </trkpt>
      <trkpt lat="51.244250033412" lon="4.592104716516">
        <ele>6.2</ele>
        <time>2019-08-04T12:22:34Z</time>
      </trkpt>
      <trkpt lat="51.244520265868" lon="4.592859171335">
        <ele>4.6</ele>
        <time>2019-08-04T12:22:44Z</time>
      </trkpt>
      <trkpt lat="51.244812039807" lon="4.593603567874">
        <ele>6.4</ele>
        <time>2019-08-04T12:22:54Z</time>
      </trkpt>
      <trkpt lat="51.245088474869" lon="4.594345617481">
        <ele>6.4</ele>
        <time>2019-08-04T12:23:04Z</time>
      </trkpt>
      <trkpt lat="51.245378488609" lon="4.59512940895">
        <ele>10.4</ele>
        <time>2019-08-04T12:23:15Z</time>
      </trkpt>
      <trkpt lat="51.245687780719" lon="4.595935077178">
        <ele>12.6</ele>
        <time>2019-08-04T12:23:25Z</time>
      </trkpt>
      <trkpt lat="51.245988858567" lon="4.596704451779">
        <ele>11</ele>
        <time>2019-08-04T12:23:35Z</time>
      </trkpt>
      <trkpt lat="51.246296977211" lon="4.597499474994">
        <ele>8.4</ele>
        <time>2019-08-04T12:23:45Z</time>
      </trkpt>
      <trkpt lat="51.24662730789" lon="4.598259126591">
        <ele>7.2</ele>
        <time>2019-08-04T12:23:55Z</time>
      </trkpt>
      <trkpt lat="51.246701236248" lon="4.598412096266">
        <ele>7.2</ele>
        <time>2019-08-04T12:23:57Z</time>
      </trkpt>
      <trkpt lat="51.24677566752" lon="4.598544865562">
        <ele>7.2</ele>
        <time>2019-08-04T12:23:59Z</time>
      </trkpt>
      <trkpt lat="51.247091246055" lon="4.599288423911">
        <ele>9.2</ele>
        <time>2019-08-04T12:24:10Z</time>
      </trkpt>
      <trkpt lat="51.247394670835" lon="4.6000286295">
        <ele>12.6</ele>
        <time>2019-08-04T12:24:20Z</time>
      </trkpt>
      <trkpt lat="51.247686947688" lon="4.600791717676">
        <ele>10</ele>
        <time>2019-08-04T12:24:30Z</time>
      </trkpt>
      <trkpt lat="51.248006717173" lon="4.601583555769">
        <ele>9.4</ele>
        <time>2019-08-04T12:24:40Z</time>
      </trkpt>
      <trkpt lat="51.248288851927" lon="4.602347565954">
        <ele>5.6</ele>
        <time>2019-08-04T12:24:50Z</time>
      </trkpt>
      <trkpt lat="51.248580625866" lon="4.603157676589">
        <ele>2.8</ele>
        <time>2019-08-04T12:25:00Z</time>
      </trkpt>
      <trkpt lat="51.24888622994" lon="4.603881621292">
        <ele>5.2</ele>
        <time>2019-08-04T12:25:09Z</time>
      </trkpt>
      <trkpt lat="51.249178003879" lon="4.604633393903">
        <ele>6.2</ele>
        <time>2019-08-04T12:25:18Z</time>
      </trkpt>
      <trkpt lat="51.249490229654" lon="4.605415760449">
        <ele>7.8</ele>
        <time>2019-08-04T12:25:28Z</time>
      </trkpt>
      <trkpt lat="51.249775884806" lon="4.606197540262">
        <ele>8.8</ele>
        <time>2019-08-04T12:25:38Z</time>
      </trkpt>
      <trkpt lat="51.25010747277" lon="4.606980912636">
        <ele>9.4</ele>
        <time>2019-08-04T12:25:49Z</time>
      </trkpt>
      <trkpt lat="51.25033546045" lon="4.607563035591">
        <ele>8</ele>
        <time>2019-08-04T12:25:57Z</time>
      </trkpt>
      <trkpt lat="51.250624300724" lon="4.608320926989">
        <ele>5.4</ele>
        <time>2019-08-04T12:26:08Z</time>
      </trkpt>
      <trkpt lat="51.250914314464" lon="4.609090133952">
        <ele>5</ele>
        <time>2019-08-04T12:26:19Z</time>
      </trkpt>
      <trkpt lat="51.251198712331" lon="4.609834279034">
        <ele>5.6</ele>
        <time>2019-08-04T12:26:30Z</time>
      </trkpt>
      <trkpt lat="51.251518230359" lon="4.610587057473">
        <ele>6.4</ele>
        <time>2019-08-04T12:26:41Z</time>
      </trkpt>
      <trkpt lat="51.251818972931" lon="4.611310499262">
        <ele>7.8</ele>
        <time>2019-08-04T12:26:51Z</time>
      </trkpt>
      <trkpt lat="51.252104125169" lon="4.612045005159">
        <ele>4.8</ele>
        <time>2019-08-04T12:27:02Z</time>
      </trkpt>
      <trkpt lat="51.252403945732" lon="4.612796861589">
        <ele>5</ele>
        <time>2019-08-04T12:27:13Z</time>
      </trkpt>
      <trkpt lat="51.252706867598" lon="4.61354192868">
        <ele>7</ele>
        <time>2019-08-04T12:27:23Z</time>
      </trkpt>
      <trkpt lat="51.252996797519" lon="4.61427953588">
        <ele>10.6</ele>
        <time>2019-08-04T12:27:33Z</time>
      </trkpt>
      <trkpt lat="51.253308101285" lon="4.615081599891">
        <ele>6.8</ele>
        <time>2019-08-04T12:27:44Z</time>
      </trkpt>
      <trkpt lat="51.253610939332" lon="4.615856003632">
        <ele>4</ele>
        <time>2019-08-04T12:27:55Z</time>
      </trkpt>
      <trkpt lat="51.2536840295" lon="4.616050798988">
        <ele>3.2</ele>
        <time>2019-08-04T12:27:58Z</time>
      </trkpt>
      <trkpt lat="51.253789976716" lon="4.616334945398">
        <ele>4</ele>
        <time>2019-08-04T12:28:02Z</time>
      </trkpt>
      <trkpt lat="51.253884859824" lon="4.616534602256">
        <ele>4.2</ele>
        <time>2019-08-04T12:28:05Z</time>
      </trkpt>
      <trkpt lat="51.253966415711" lon="4.616611464279">
        <ele>3.8</ele>
        <time>2019-08-04T12:28:07Z</time>
      </trkpt>
      <trkpt lat="51.254044535019" lon="4.616677848927">
        <ele>3.6</ele>
        <time>2019-08-04T12:28:09Z</time>
      </trkpt>
      <trkpt lat="51.254427755487" lon="4.617346221633">
        <ele>1.4</ele>
        <time>2019-08-04T12:28:20Z</time>
      </trkpt>
      <trkpt lat="51.254779711468" lon="4.618029346483">
        <ele>5.8</ele>
        <time>2019-08-04T12:28:30Z</time>
      </trkpt>
      <trkpt lat="51.255201488676" lon="4.61880157093">
        <ele>3.6</ele>
        <time>2019-08-04T12:28:42Z</time>
      </trkpt>
      <trkpt lat="51.255543554015" lon="4.61953833994">
        <ele>6</ele>
        <time>2019-08-04T12:28:53Z</time>
      </trkpt>
      <trkpt lat="51.255885535535" lon="4.620243844463">
        <ele>8.2</ele>
        <time>2019-08-04T12:29:04Z</time>
      </trkpt>
      <trkpt lat="51.256272611677" lon="4.620932836643">
        <ele>8.2</ele>
        <time>2019-08-04T12:29:16Z</time>
      </trkpt>
      <trkpt lat="51.256649880996" lon="4.621630378361">
        <ele>7</ele>
        <time>2019-08-04T12:29:27Z</time>
      </trkpt>
      <trkpt lat="51.257026815039" lon="4.62226078106">
        <ele>9.6</ele>
        <time>2019-08-04T12:29:38Z</time>
      </trkpt>
      <trkpt lat="51.257400647779" lon="4.622987827066">
        <ele>9.4</ele>
        <time>2019-08-04T12:29:49Z</time>
      </trkpt>
      <trkpt lat="51.257464182581" lon="4.623113052652">
        <ele>9.2</ele>
        <time>2019-08-04T12:29:51Z</time>
      </trkpt>
      <trkpt lat="51.257829968697" lon="4.623819311546">
        <ele>8.8</ele>
        <time>2019-08-04T12:30:03Z</time>
      </trkpt>
      <trkpt lat="51.258139176988" lon="4.624573766365">
        <ele>5.6</ele>
        <time>2019-08-04T12:30:15Z</time>
      </trkpt>
      <trkpt lat="51.258177230814" lon="4.624708379679">
        <ele>5.6</ele>
        <time>2019-08-04T12:30:17Z</time>
      </trkpt>
      <trkpt lat="51.258391975092" lon="4.625533158639">
        <ele>6.2</ele>
        <time>2019-08-04T12:30:28Z</time>
      </trkpt>
      <trkpt lat="51.258621052419" lon="4.626317536841">
        <ele>7.6</ele>
        <time>2019-08-04T12:30:38Z</time>
      </trkpt>
      <trkpt lat="51.258860020388" lon="4.627116834825">
        <ele>9</ele>
        <time>2019-08-04T12:30:49Z</time>
      </trkpt>
      <trkpt lat="51.258928919606" lon="4.6273200959">
        <ele>9.4</ele>
        <time>2019-08-04T12:30:52Z</time>
      </trkpt>
      <trkpt lat="51.25921692169" lon="4.628069856855">
        <ele>10.4</ele>
        <time>2019-08-04T12:31:02Z</time>
      </trkpt>
      <trkpt lat="51.259589748602" lon="4.628694392224">
        <ele>11.4</ele>
        <time>2019-08-04T12:31:11Z</time>
      </trkpt>
      <trkpt lat="51.259987972671" lon="4.629300403594">
        <ele>10.6</ele>
        <time>2019-08-04T12:31:22Z</time>
      </trkpt>
      <trkpt lat="51.260372534243" lon="4.629915551235">
        <ele>16.8</ele>
        <time>2019-08-04T12:31:33Z</time>
      </trkpt>
      <trkpt lat="51.260779643126" lon="4.630539918966">
        <ele>19.6</ele>
        <time>2019-08-04T12:31:44Z</time>
      </trkpt>
      <trkpt lat="51.261207371483" lon="4.631146852345">
        <ele>26.2</ele>
        <time>2019-08-04T12:31:56Z</time>
      </trkpt>
      <trkpt lat="51.261704082877" lon="4.631537784161">
        <ele>25.4</ele>
        <time>2019-08-04T12:32:06Z</time>
      </trkpt>
      <trkpt lat="51.262210349637" lon="4.631971631305">
        <ele>22.8</ele>
        <time>2019-08-04T12:32:15Z</time>
      </trkpt>
      <trkpt lat="51.262704797918" lon="4.632429283045">
        <ele>20.2</ele>
        <time>2019-08-04T12:32:25Z</time>
      </trkpt>
      <trkpt lat="51.263157085242" lon="4.632925659163">
        <ele>17.8</ele>
        <time>2019-08-04T12:32:36Z</time>
      </trkpt>
      <trkpt lat="51.26355958408" lon="4.633494873992">
        <ele>13.4</ele>
        <time>2019-08-04T12:32:47Z</time>
      </trkpt>
      <trkpt lat="51.263943726557" lon="4.634176825376">
        <ele>13</ele>
        <time>2019-08-04T12:32:58Z</time>
      </trkpt>
      <trkpt lat="51.263983959677" lon="4.634233822296">
        <ele>12.6</ele>
        <time>2019-08-04T12:32:59Z</time>
      </trkpt>
      <trkpt lat="51.26434748268" lon="4.634869170316">
        <ele>4</ele>
        <time>2019-08-04T12:33:10Z</time>
      </trkpt>
      <trkpt lat="51.264665491966" lon="4.635362026036">
        <ele>3.6</ele>
        <time>2019-08-04T12:33:20Z</time>
      </trkpt>
      <trkpt lat="51.265035552851" lon="4.635995530038">
        <ele>6.4</ele>
        <time>2019-08-04T12:33:32Z</time>
      </trkpt>
      <trkpt lat="51.265236047899" lon="4.636174818879">
        <ele>12</ele>
        <time>2019-08-04T12:33:36Z</time>
      </trkpt>
      <trkpt lat="51.265589428803" lon="4.636830786373">
        <ele>16.8</ele>
        <time>2019-08-04T12:33:48Z</time>
      </trkpt>
      <trkpt lat="51.265617843444" lon="4.636894907908">
        <ele>15.6</ele>
        <time>2019-08-04T12:33:49Z</time>
      </trkpt>
      <trkpt lat="51.266006512147" lon="4.637585576468">
        <ele>12.4</ele>
        <time>2019-08-04T12:34:00Z</time>
      </trkpt>
      <trkpt lat="51.266381937448" lon="4.638230228397">
        <ele>12.8</ele>
        <time>2019-08-04T12:34:11Z</time>
      </trkpt>
      <trkpt lat="51.266505989568" lon="4.638388143393">
        <ele>15.2</ele>
        <time>2019-08-04T12:34:14Z</time>
      </trkpt>
      <trkpt lat="51.266874206435" lon="4.638876305249">
        <ele>23.2</ele>
        <time>2019-08-04T12:34:25Z</time>
      </trkpt>
      <trkpt lat="51.266880828136" lon="4.638937241662">
        <ele>23.2</ele>
        <time>2019-08-04T12:34:52Z</time>
      </trkpt>
      <trkpt lat="51.26690563856" lon="4.63897680423">
        <ele>23.4</ele>
        <time>2019-08-04T12:34:55Z</time>
      </trkpt>
      <trkpt lat="51.267156927922" lon="4.639274948413">
        <ele>23.4</ele>
        <time>2019-08-04T12:35:05Z</time>
      </trkpt>
      <trkpt lat="51.267223061113" lon="4.63939338466">
        <ele>23.4</ele>
        <time>2019-08-04T12:35:07Z</time>
      </trkpt>
      <trkpt lat="51.267618351517" lon="4.640081454831">
        <ele>22.2</ele>
        <time>2019-08-04T12:35:18Z</time>
      </trkpt>
      <trkpt lat="51.268059574733" lon="4.640725603846">
        <ele>29.6</ele>
        <time>2019-08-04T12:35:28Z</time>
      </trkpt>
      <trkpt lat="51.268274738106" lon="4.641096083826">
        <ele>24.6</ele>
        <time>2019-08-04T12:35:34Z</time>
      </trkpt>
      <trkpt lat="51.268696766771" lon="4.641752973329">
        <ele>26</ele>
        <time>2019-08-04T12:35:45Z</time>
      </trkpt>
      <trkpt lat="51.269120304178" lon="4.642343897279">
        <ele>29.4</ele>
        <time>2019-08-04T12:35:54Z</time>
      </trkpt>
      <trkpt lat="51.269520539903" lon="4.642929540632">
        <ele>25.8</ele>
        <time>2019-08-04T12:36:03Z</time>
      </trkpt>
      <trkpt lat="51.269925134216" lon="4.643613168396">
        <ele>24.8</ele>
        <time>2019-08-04T12:36:14Z</time>
      </trkpt>
      <trkpt lat="51.270345151225" lon="4.644212222789">
        <ele>29.2</ele>
        <time>2019-08-04T12:36:26Z</time>
      </trkpt>
      <trkpt lat="51.270768772451" lon="4.644852348492">
        <ele>27</ele>
        <time>2019-08-04T12:36:36Z</time>
      </trkpt>
      <trkpt lat="51.271199937387" lon="4.645471770902">
        <ele>27.4</ele>
        <time>2019-08-04T12:36:46Z</time>
      </trkpt>
      <trkpt lat="51.271589109004" lon="4.64610309561">
        <ele>22.8</ele>
        <time>2019-08-04T12:36:56Z</time>
      </trkpt>
      <trkpt lat="51.27199093729" lon="4.646772390325">
        <ele>15</ele>
        <time>2019-08-04T12:37:06Z</time>
      </trkpt>
      <trkpt lat="51.272392095024" lon="4.647422239032">
        <ele>10.6</ele>
        <time>2019-08-04T12:37:16Z</time>
      </trkpt>
      <trkpt lat="51.272781099003" lon="4.648044008374">
        <ele>6.8</ele>
        <time>2019-08-04T12:37:26Z</time>
      </trkpt>
      <trkpt lat="51.273239253657" lon="4.648656557626">
        <ele>10</ele>
        <time>2019-08-04T12:37:36Z</time>
      </trkpt>
      <trkpt lat="51.273464894405" lon="4.648924359331">
        <ele>12.2</ele>
        <time>2019-08-04T12:37:41Z</time>
      </trkpt>
      <trkpt lat="51.273875607505" lon="4.649553337107">
        <ele>9</ele>
        <time>2019-08-04T12:37:52Z</time>
      </trkpt>
      <trkpt lat="51.274295456876" lon="4.65019849195">
        <ele>7</ele>
        <time>2019-08-04T12:38:03Z</time>
      </trkpt>
      <trkpt lat="51.274709690374" lon="4.650805928243">
        <ele>6.6</ele>
        <time>2019-08-04T12:38:13Z</time>
      </trkpt>
      <trkpt lat="51.275092156471" lon="4.651426105024">
        <ele>7.6</ele>
        <time>2019-08-04T12:38:24Z</time>
      </trkpt>
      <trkpt lat="51.275517789353" lon="4.651990290713">
        <ele>9.2</ele>
        <time>2019-08-04T12:38:35Z</time>
      </trkpt>
      <trkpt lat="51.275929424462" lon="4.652614071711">
        <ele>10.6</ele>
        <time>2019-08-04T12:38:45Z</time>
      </trkpt>
      <trkpt lat="51.276303257202" lon="4.653267692273">
        <ele>14.2</ele>
        <time>2019-08-04T12:38:55Z</time>
      </trkpt>
      <trkpt lat="51.276693853742" lon="4.653891724728">
        <ele>8</ele>
        <time>2019-08-04T12:39:06Z</time>
      </trkpt>
      <trkpt lat="51.276727465161" lon="4.653954169883">
        <ele>7.8</ele>
        <time>2019-08-04T12:39:07Z</time>
      </trkpt>
      <trkpt lat="51.277118816072" lon="4.654559762158">
        <ele>10</ele>
        <time>2019-08-04T12:39:18Z</time>
      </trkpt>
      <trkpt lat="51.27753388776" lon="4.655176921455">
        <ele>8.2</ele>
        <time>2019-08-04T12:39:31Z</time>
      </trkpt>
      <trkpt lat="51.277920880083" lon="4.655824674687">
        <ele>4.2</ele>
        <time>2019-08-04T12:39:41Z</time>
      </trkpt>
      <trkpt lat="51.278349195173" lon="4.656424148175">
        <ele>7.4</ele>
        <time>2019-08-04T12:39:51Z</time>
      </trkpt>
      <trkpt lat="51.27860844734" lon="4.656866880133">
        <ele>8.2</ele>
        <time>2019-08-04T12:39:58Z</time>
      </trkpt>
      <trkpt lat="51.279034583136" lon="4.657434167125">
        <ele>12.8</ele>
        <time>2019-08-04T12:40:08Z</time>
      </trkpt>
      <trkpt lat="51.279459126371" lon="4.658099773804">
        <ele>14</ele>
        <time>2019-08-04T12:40:18Z</time>
      </trkpt>
      <trkpt lat="51.279898589388" lon="4.658739731869">
        <ele>16.2</ele>
        <time>2019-08-04T12:40:28Z</time>
      </trkpt>
      <trkpt lat="51.280315505094" lon="4.659355885338">
        <ele>15.6</ele>
        <time>2019-08-04T12:40:38Z</time>
      </trkpt>
      <trkpt lat="51.280716914285" lon="4.659978911965">
        <ele>12.4</ele>
        <time>2019-08-04T12:40:48Z</time>
      </trkpt>
      <trkpt lat="51.280828058279" lon="4.660165325421">
        <ele>12.2</ele>
        <time>2019-08-04T12:40:51Z</time>
      </trkpt>
      <trkpt lat="51.280929227812" lon="4.66045793755">
        <ele>11</ele>
        <time>2019-08-04T12:40:55Z</time>
      </trkpt>
      <trkpt lat="51.281013885002" lon="4.660584839516">
        <ele>11.8</ele>
        <time>2019-08-04T12:40:57Z</time>
      </trkpt>
      <trkpt lat="51.281415294193" lon="4.661211302722">
        <ele>13.6</ele>
        <time>2019-08-04T12:41:07Z</time>
      </trkpt>
      <trkpt lat="51.281450246716" lon="4.661267461452">
        <ele>13.4</ele>
        <time>2019-08-04T12:41:08Z</time>
      </trkpt>
      <trkpt lat="51.281469608905" lon="4.661388747545">
        <ele>13</ele>
        <time>2019-08-04T12:41:10Z</time>
      </trkpt>
      <trkpt lat="51.281424598102" lon="4.661513889312">
        <ele>12.8</ele>
        <time>2019-08-04T12:41:12Z</time>
      </trkpt>
      <trkpt lat="51.281107594644" lon="4.662234397436">
        <ele>11.4</ele>
        <time>2019-08-04T12:41:22Z</time>
      </trkpt>
      <trkpt lat="51.280806013882" lon="4.662951301343">
        <ele>10.6</ele>
        <time>2019-08-04T12:41:32Z</time>
      </trkpt>
      <trkpt lat="51.280473671547" lon="4.663726543274">
        <ele>12</ele>
        <time>2019-08-04T12:41:43Z</time>
      </trkpt>
      <trkpt lat="51.280140826298" lon="4.664445375018">
        <ele>8.2</ele>
        <time>2019-08-04T12:41:55Z</time>
      </trkpt>
      <trkpt lat="51.280104448852" lon="4.664597255046">
        <ele>8.4</ele>
        <time>2019-08-04T12:41:57Z</time>
      </trkpt>
      <trkpt lat="51.279939828336" lon="4.66543343339">
        <ele>10.6</ele>
        <time>2019-08-04T12:42:07Z</time>
      </trkpt>
      <trkpt lat="51.279801526986" lon="4.666305402447">
        <ele>8.2</ele>
        <time>2019-08-04T12:42:18Z</time>
      </trkpt>
      <trkpt lat="51.279674205925" lon="4.667149292139">
        <ele>10.2</ele>
        <time>2019-08-04T12:42:29Z</time>
      </trkpt>
      <trkpt lat="51.279528947598" lon="4.668026290336">
        <ele>9</ele>
        <time>2019-08-04T12:42:40Z</time>
      </trkpt>
      <trkpt lat="51.279354520259" lon="4.668925500568">
        <ele>9</ele>
        <time>2019-08-04T12:42:51Z</time>
      </trkpt>
      <trkpt lat="51.279133238099" lon="4.669727145484">
        <ele>10</ele>
        <time>2019-08-04T12:43:01Z</time>
      </trkpt>
      <trkpt lat="51.278967611755" lon="4.670347489903">
        <ele>11.8</ele>
        <time>2019-08-04T12:43:09Z</time>
      </trkpt>
      <trkpt lat="51.278978256768" lon="4.670487216176">
        <ele>11.6</ele>
        <time>2019-08-04T12:43:11Z</time>
      </trkpt>
      <trkpt lat="51.279064757976" lon="4.670758789736">
        <ele>10.2</ele>
        <time>2019-08-04T12:43:17Z</time>
      </trkpt>
      <trkpt lat="51.279071631134" lon="4.670572041004">
        <ele>7.6</ele>
        <time>2019-08-04T12:43:23Z</time>
      </trkpt>
      <trkpt lat="51.279012706377" lon="4.670427117953">
        <ele>6.6</ele>
        <time>2019-08-04T12:43:27Z</time>
      </trkpt>
      <trkpt lat="51.279039109362" lon="4.670300299806">
        <ele>7</ele>
        <time>2019-08-04T12:43:29Z</time>
      </trkpt>
      <trkpt lat="51.279284615213" lon="4.669522710943">
        <ele>7.8</ele>
        <time>2019-08-04T12:43:40Z</time>
      </trkpt>
      <trkpt lat="51.279457617629" lon="4.668846878346">
        <ele>8.6</ele>
        <time>2019-08-04T12:43:49Z</time>
      </trkpt>
      <trkpt lat="51.279597846816" lon="4.667938280386">
        <ele>6.4</ele>
        <time>2019-08-04T12:44:00Z</time>
      </trkpt>
      <trkpt lat="51.279673116278" lon="4.667395133266">
        <ele>5.4</ele>
        <time>2019-08-04T12:44:07Z</time>
      </trkpt>
      <trkpt lat="51.279893224972" lon="4.66652559496">
        <ele>7.8</ele>
        <time>2019-08-04T12:44:19Z</time>
      </trkpt>
      <trkpt lat="51.279899762854" lon="4.666426353264">
        <ele>8.6</ele>
        <time>2019-08-04T12:44:20Z</time>
      </trkpt>
      <trkpt lat="51.280026329544" lon="4.665545415574">
        <ele>12</ele>
        <time>2019-08-04T12:44:31Z</time>
      </trkpt>
      <trkpt lat="51.280093971477" lon="4.665176695793">
        <ele>9.8</ele>
        <time>2019-08-04T12:44:36Z</time>
      </trkpt>
      <trkpt lat="51.280253479034" lon="4.664302295985">
        <ele>8.4</ele>
        <time>2019-08-04T12:44:48Z</time>
      </trkpt>
      <trkpt lat="51.280519101445" lon="4.663536693239">
        <ele>0</ele>
        <time>2019-08-04T12:45:00Z</time>
      </trkpt>
      <trkpt lat="51.280861669698" lon="4.662771677226">
        <ele>0</ele>
        <time>2019-08-04T12:45:10Z</time>
      </trkpt>
      <trkpt lat="51.281179595165" lon="4.66200355991">
        <ele>4.6</ele>
        <time>2019-08-04T12:45:20Z</time>
      </trkpt>
      <trkpt lat="51.281448737974" lon="4.661266623262">
        <ele>6.2</ele>
        <time>2019-08-04T12:45:31Z</time>
      </trkpt>
      <trkpt lat="51.281484193411" lon="4.661139553658">
        <ele>7</ele>
        <time>2019-08-04T12:45:33Z</time>
      </trkpt>
      <trkpt lat="51.281477990805" lon="4.661009634208">
        <ele>7.6</ele>
        <time>2019-08-04T12:45:35Z</time>
      </trkpt>
      <trkpt lat="51.28142141298" lon="4.66088541445">
        <ele>8.2</ele>
        <time>2019-08-04T12:45:37Z</time>
      </trkpt>
      <trkpt lat="51.281158137501" lon="4.660439329732">
        <ele>10</ele>
        <time>2019-08-04T12:45:45Z</time>
      </trkpt>
      <trkpt lat="51.2810593149" lon="4.660260711443">
        <ele>9.6</ele>
        <time>2019-08-04T12:45:48Z</time>
      </trkpt>
      <trkpt lat="51.280637034778" lon="4.659625363423">
        <ele>5</ele>
        <time>2019-08-04T12:45:59Z</time>
      </trkpt>
      <trkpt lat="51.280196146838" lon="4.659015999293">
        <ele>4</ele>
        <time>2019-08-04T12:46:09Z</time>
      </trkpt>
      <trkpt lat="51.279793396543" lon="4.658376627961">
        <ele>3.8</ele>
        <time>2019-08-04T12:46:20Z</time>
      </trkpt>
      <trkpt lat="51.279387880221" lon="4.657800623793">
        <ele>1.6</ele>
        <time>2019-08-04T12:46:31Z</time>
      </trkpt>
      <trkpt lat="51.278982363899" lon="4.657226379824">
        <ele>0.6</ele>
        <time>2019-08-04T12:46:41Z</time>
      </trkpt>
      <trkpt lat="51.278591096807" lon="4.656562700982">
        <ele>0</ele>
        <time>2019-08-04T12:46:51Z</time>
      </trkpt>
      <trkpt lat="51.278177785318" lon="4.655924419297">
        <ele>0.4</ele>
        <time>2019-08-04T12:47:02Z</time>
      </trkpt>
      <trkpt lat="51.277750476056" lon="4.655323856162">
        <ele>0</ele>
        <time>2019-08-04T12:47:13Z</time>
      </trkpt>
      <trkpt lat="51.277311851229" lon="4.654709546711">
        <ele>0</ele>
        <time>2019-08-04T12:47:21Z</time>
      </trkpt>
      <trkpt lat="51.276933324625" lon="4.654080317478">
        <ele>0</ele>
        <time>2019-08-04T12:47:28Z</time>
      </trkpt>
      <trkpt lat="51.276549936519" lon="4.653422422147">
        <ele>0.8</ele>
        <time>2019-08-04T12:47:37Z</time>
      </trkpt>
      <trkpt lat="51.276142324722" lon="4.652826636695">
        <ele>2.4</ele>
        <time>2019-08-04T12:47:46Z</time>
      </trkpt>
      <trkpt lat="51.275751728182" lon="4.652177374721">
        <ele>5.6</ele>
        <time>2019-08-04T12:47:55Z</time>
      </trkpt>
      <trkpt lat="51.27532358073" lon="4.651528112747">
        <ele>6.8</ele>
        <time>2019-08-04T12:48:03Z</time>
      </trkpt>
      <trkpt lat="51.274936169312" lon="4.650889244329">
        <ele>4.2</ele>
        <time>2019-08-04T12:48:11Z</time>
      </trkpt>
      <trkpt lat="51.274519169787" lon="4.650275186335">
        <ele>0.6</ele>
        <time>2019-08-04T12:48:20Z</time>
      </trkpt>
      <trkpt lat="51.274090435602" lon="4.649664145825">
        <ele>0</ele>
        <time>2019-08-04T12:48:30Z</time>
      </trkpt>
      <trkpt lat="51.273641584857" lon="4.649040029551">
        <ele>1</ele>
        <time>2019-08-04T12:48:41Z</time>
      </trkpt>
      <trkpt lat="51.273250401584" lon="4.648433096172">
        <ele>0</ele>
        <time>2019-08-04T12:48:51Z</time>
      </trkpt>
      <trkpt lat="51.272805993246" lon="4.647813589943">
        <ele>0</ele>
        <time>2019-08-04T12:49:02Z</time>
      </trkpt>
      <trkpt lat="51.272390921558" lon="4.647200789234">
        <ele>0</ele>
        <time>2019-08-04T12:49:13Z</time>
      </trkpt>
      <trkpt lat="51.271968641436" lon="4.646527471207">
        <ele>0</ele>
        <time>2019-08-04T12:49:22Z</time>
      </trkpt>
      <trkpt lat="51.271743922697" lon="4.646136874667">
        <ele>5.2</ele>
        <time>2019-08-04T12:49:27Z</time>
      </trkpt>
      <trkpt lat="51.271617607464" lon="4.64591534105">
        <ele>6.6</ele>
        <time>2019-08-04T12:49:30Z</time>
      </trkpt>
      <trkpt lat="51.271211252952" lon="4.645317041028">
        <ele>7.4</ele>
        <time>2019-08-04T12:49:40Z</time>
      </trkpt>
      <trkpt lat="51.271170097823" lon="4.645255266425">
        <ele>7.8</ele>
        <time>2019-08-04T12:49:41Z</time>
      </trkpt>
      <trkpt lat="51.270951414052" lon="4.644910183602">
        <ele>9.6</ele>
        <time>2019-08-04T12:49:46Z</time>
      </trkpt>
      <trkpt lat="51.270556710381" lon="4.644296377065">
        <ele>12.8</ele>
        <time>2019-08-04T12:49:56Z</time>
      </trkpt>
      <trkpt lat="51.270137028648" lon="4.643732359014">
        <ele>11.8</ele>
        <time>2019-08-04T12:50:07Z</time>
      </trkpt>
      <trkpt lat="51.269734948905" lon="4.643127772567">
        <ele>11.6</ele>
        <time>2019-08-04T12:50:18Z</time>
      </trkpt>
      <trkpt lat="51.269365055658" lon="4.642476163661">
        <ele>8</ele>
        <time>2019-08-04T12:50:29Z</time>
      </trkpt>
      <trkpt lat="51.268950235427" lon="4.641824387117">
        <ele>6.2</ele>
        <time>2019-08-04T12:50:39Z</time>
      </trkpt>
      <trkpt lat="51.26854010906" lon="4.641254837012">
        <ele>7.4</ele>
        <time>2019-08-04T12:50:50Z</time>
      </trkpt>
      <trkpt lat="51.26815035071" lon="4.64062300939">
        <ele>7.6</ele>
        <time>2019-08-04T12:50:59Z</time>
      </trkpt>
      <trkpt lat="51.267737793592" lon="4.639991684682">
        <ele>7.8</ele>
        <time>2019-08-04T12:51:09Z</time>
      </trkpt>
      <trkpt lat="51.267308472674" lon="4.639333537894">
        <ele>8.8</ele>
        <time>2019-08-04T12:51:20Z</time>
      </trkpt>
      <trkpt lat="51.266883761801" lon="4.638681006979">
        <ele>5.6</ele>
        <time>2019-08-04T12:51:31Z</time>
      </trkpt>
      <trkpt lat="51.266478077841" lon="4.63798438727">
        <ele>7.6</ele>
        <time>2019-08-04T12:51:41Z</time>
      </trkpt>
      <trkpt lat="51.26608169779" lon="4.637365635412">
        <ele>17</ele>
        <time>2019-08-04T12:51:50Z</time>
      </trkpt>
      <trkpt lat="51.265693448182" lon="4.636735987084">
        <ele>15.6</ele>
        <time>2019-08-04T12:52:00Z</time>
      </trkpt>
      <trkpt lat="51.265363033684" lon="4.636194348706">
        <ele>6.2</ele>
        <time>2019-08-04T12:52:10Z</time>
      </trkpt>
      <trkpt lat="51.265064889501" lon="4.63573803807">
        <ele>2.2</ele>
        <time>2019-08-04T12:52:18Z</time>
      </trkpt>
      <trkpt lat="51.264970928402" lon="4.635599652901">
        <ele>3.4</ele>
        <time>2019-08-04T12:52:20Z</time>
      </trkpt>
      <trkpt lat="51.264610758159" lon="4.63494175757">
        <ele>6.8</ele>
        <time>2019-08-04T12:52:29Z</time>
      </trkpt>
      <trkpt lat="51.264203900733" lon="4.634252430114">
        <ele>6.6</ele>
        <time>2019-08-04T12:52:39Z</time>
      </trkpt>
      <trkpt lat="51.263820428808" lon="4.633637953025">
        <ele>11.8</ele>
        <time>2019-08-04T12:52:49Z</time>
      </trkpt>
      <trkpt lat="51.263415918314" lon="4.633029091809">
        <ele>12.4</ele>
        <time>2019-08-04T12:52:59Z</time>
      </trkpt>
      <trkpt lat="51.263269989435" lon="4.632868494605">
        <ele>11.6</ele>
        <time>2019-08-04T12:53:02Z</time>
      </trkpt>
      <trkpt lat="51.263187008625" lon="4.632763050303">
        <ele>11</ele>
        <time>2019-08-04T12:53:04Z</time>
      </trkpt>
      <trkpt lat="51.262730027437" lon="4.632255274801">
        <ele>5.4</ele>
        <time>2019-08-04T12:53:14Z</time>
      </trkpt>
      <trkpt lat="51.262220659374" lon="4.631772477361">
        <ele>0</ele>
        <time>2019-08-04T12:53:25Z</time>
      </trkpt>
      <trkpt lat="51.261721684867" lon="4.631330918869">
        <ele>2</ele>
        <time>2019-08-04T12:53:34Z</time>
      </trkpt>
      <trkpt lat="51.261233103916" lon="4.630869579093">
        <ele>9.2</ele>
        <time>2019-08-04T12:53:43Z</time>
      </trkpt>
      <trkpt lat="51.26078601337" lon="4.630296843866">
        <ele>10.8</ele>
        <time>2019-08-04T12:53:53Z</time>
      </trkpt>
      <trkpt lat="51.260400697427" lon="4.629695274903">
        <ele>9.6</ele>
        <time>2019-08-04T12:54:03Z</time>
      </trkpt>
      <trkpt lat="51.260020075348" lon="4.629075684855">
        <ele>8.8</ele>
        <time>2019-08-04T12:54:13Z</time>
      </trkpt>
      <trkpt lat="51.259636603423" lon="4.628427931623">
        <ele>8.2</ele>
        <time>2019-08-04T12:54:23Z</time>
      </trkpt>
      <trkpt lat="51.259223459572" lon="4.627728713525">
        <ele>0.2</ele>
        <time>2019-08-04T12:54:34Z</time>
      </trkpt>
      <trkpt lat="51.258965799966" lon="4.626878621227">
        <ele>0</ele>
        <time>2019-08-04T12:54:43Z</time>
      </trkpt>
      <trkpt lat="51.258830599919" lon="4.626436392183">
        <ele>1</ele>
        <time>2019-08-04T12:54:48Z</time>
      </trkpt>
      <trkpt lat="51.25875675538" lon="4.626276884626">
        <ele>2.4</ele>
        <time>2019-08-04T12:54:50Z</time>
      </trkpt>
      <trkpt lat="51.258503202905" lon="4.625488734569">
        <ele>4.2</ele>
        <time>2019-08-04T12:55:00Z</time>
      </trkpt>
      <trkpt lat="51.258283513306" lon="4.624683736893">
        <ele>7.4</ele>
        <time>2019-08-04T12:55:10Z</time>
      </trkpt>
      <trkpt lat="51.258008419348" lon="4.623896425026">
        <ele>11.8</ele>
        <time>2019-08-04T12:55:21Z</time>
      </trkpt>
      <trkpt lat="51.257660151403" lon="4.623162924957">
        <ele>9.8</ele>
        <time>2019-08-04T12:55:33Z</time>
      </trkpt>
      <trkpt lat="51.257310793811" lon="4.62249295969">
        <ele>5.6</ele>
        <time>2019-08-04T12:55:44Z</time>
      </trkpt>
      <trkpt lat="51.256946935532" lon="4.621810337754">
        <ele>6.8</ele>
        <time>2019-08-04T12:55:55Z</time>
      </trkpt>
      <trkpt lat="51.256577712837" lon="4.621083794662">
        <ele>9.2</ele>
        <time>2019-08-04T12:56:06Z</time>
      </trkpt>
      <trkpt lat="51.256176638922" lon="4.620383822193">
        <ele>14</ele>
        <time>2019-08-04T12:56:16Z</time>
      </trkpt>
      <trkpt lat="51.255768775668" lon="4.619731626554">
        <ele>21.4</ele>
        <time>2019-08-04T12:56:27Z</time>
      </trkpt>
      <trkpt lat="51.255435176048" lon="4.619053279387">
        <ele>21</ele>
        <time>2019-08-04T12:56:37Z</time>
      </trkpt>
      <trkpt lat="51.255064276973" lon="4.618352636366">
        <ele>20.6</ele>
        <time>2019-08-04T12:56:48Z</time>
      </trkpt>
      <trkpt lat="51.254773257405" lon="4.617796245844">
        <ele>18.8</ele>
        <time>2019-08-04T12:56:57Z</time>
      </trkpt>
      <trkpt lat="51.254449129332" lon="4.617080347765">
        <ele>8</ele>
        <time>2019-08-04T12:57:08Z</time>
      </trkpt>
      <trkpt lat="51.254118044282" lon="4.616357995623">
        <ele>0.6</ele>
        <time>2019-08-04T12:57:20Z</time>
      </trkpt>
      <trkpt lat="51.253822917583" lon="4.615631033436">
        <ele>2.8</ele>
        <time>2019-08-04T12:57:29Z</time>
      </trkpt>
      <trkpt lat="51.253510607989" lon="4.61486375431">
        <ele>2.2</ele>
        <time>2019-08-04T12:57:39Z</time>
      </trkpt>
      <trkpt lat="51.253273064943" lon="4.61425019923">
        <ele>4</ele>
        <time>2019-08-04T12:57:48Z</time>
      </trkpt>
      <trkpt lat="51.253085897116" lon="4.614019864618">
        <ele>2.4</ele>
        <time>2019-08-04T12:57:53Z</time>
      </trkpt>
      <trkpt lat="51.252788591123" lon="4.613285693997">
        <ele>3.2</ele>
        <time>2019-08-04T12:58:02Z</time>
      </trkpt>
      <trkpt lat="51.252488267646" lon="4.612516906129">
        <ele>4</ele>
        <time>2019-08-04T12:58:11Z</time>
      </trkpt>
      <trkpt lat="51.252192805671" lon="4.611780220938">
        <ele>3.8</ele>
        <time>2019-08-04T12:58:20Z</time>
      </trkpt>
      <trkpt lat="51.251879322611" lon="4.610992657614">
        <ele>2</ele>
        <time>2019-08-04T12:58:31Z</time>
      </trkpt>
      <trkpt lat="51.251593164545" lon="4.61026376759">
        <ele>0.4</ele>
        <time>2019-08-04T12:58:40Z</time>
      </trkpt>
      <trkpt lat="51.251423850165" lon="4.609797650131">
        <ele>0.2</ele>
        <time>2019-08-04T12:58:49Z</time>
      </trkpt>
      <trkpt lat="51.251427957296" lon="4.609808211325">
        <ele>3</ele>
        <time>2019-08-04T12:59:04Z</time>
      </trkpt>
      <trkpt lat="51.25140499089" lon="4.609751298224">
        <ele>3</ele>
        <time>2019-08-04T12:59:09Z</time>
      </trkpt>
      <trkpt lat="51.251080443722" lon="4.608985695478">
        <ele>1</ele>
        <time>2019-08-04T12:59:22Z</time>
      </trkpt>
      <trkpt lat="51.25077886296" lon="4.608204083303">
        <ele>2</ele>
        <time>2019-08-04T12:59:31Z</time>
      </trkpt>
      <trkpt lat="51.2504905256" lon="4.607441330403">
        <ele>1.8</ele>
        <time>2019-08-04T12:59:40Z</time>
      </trkpt>
      <trkpt lat="51.250199254575" lon="4.606706908325">
        <ele>0.6</ele>
        <time>2019-08-04T12:59:49Z</time>
      </trkpt>
      <trkpt lat="51.249900188383" lon="4.605960835406">
        <ele>0</ele>
        <time>2019-08-04T12:59:57Z</time>
      </trkpt>
      <trkpt lat="51.24974537469" lon="4.605532268859">
        <ele>1</ele>
        <time>2019-08-04T13:00:02Z</time>
      </trkpt>
      <trkpt lat="51.24969843605" lon="4.605344346661">
        <ele>1.4</ele>
        <time>2019-08-04T13:00:04Z</time>
      </trkpt>
      <trkpt lat="51.249378834203" lon="4.604616127189">
        <ele>0.8</ele>
        <time>2019-08-04T13:00:13Z</time>
      </trkpt>
      <trkpt lat="51.249071553749" lon="4.603873993763">
        <ele>1</ele>
        <time>2019-08-04T13:00:22Z</time>
      </trkpt>
      <trkpt lat="51.248771481729" lon="4.603113001062">
        <ele>0.2</ele>
        <time>2019-08-04T13:00:31Z</time>
      </trkpt>
      <trkpt lat="51.248459675049" lon="4.602328455222">
        <ele>0.4</ele>
        <time>2019-08-04T13:00:40Z</time>
      </trkpt>
      <trkpt lat="51.248151640224" lon="4.601549022341">
        <ele>1</ele>
        <time>2019-08-04T13:00:49Z</time>
      </trkpt>
      <trkpt lat="51.247854585688" lon="4.600794316065">
        <ele>0.8</ele>
        <time>2019-08-04T13:00:59Z</time>
      </trkpt>
      <trkpt lat="51.247548394881" lon="4.600046902042">
        <ele>0</ele>
        <time>2019-08-04T13:01:08Z</time>
      </trkpt>
      <trkpt lat="51.247252513811" lon="4.599319017846">
        <ele>0</ele>
        <time>2019-08-04T13:01:17Z</time>
      </trkpt>
      <trkpt lat="51.247220830229" lon="4.599240060348">
        <ele>0</ele>
        <time>2019-08-04T13:01:18Z</time>
      </trkpt>
      <trkpt lat="51.247169868277" lon="4.59896329001">
        <ele>0.2</ele>
        <time>2019-08-04T13:01:21Z</time>
      </trkpt>
      <trkpt lat="51.24690642516" lon="4.598214031969">
        <ele>0.8</ele>
        <time>2019-08-04T13:01:30Z</time>
      </trkpt>
      <trkpt lat="51.246607945701" lon="4.597461672625">
        <ele>3.6</ele>
        <time>2019-08-04T13:01:40Z</time>
      </trkpt>
      <trkpt lat="51.246322961101" lon="4.596716018801">
        <ele>1.4</ele>
        <time>2019-08-04T13:01:50Z</time>
      </trkpt>
      <trkpt lat="51.24603219299" lon="4.595984195112">
        <ele>0.6</ele>
        <time>2019-08-04T13:01:59Z</time>
      </trkpt>
      <trkpt lat="51.245722984699" lon="4.595250611224">
        <ele>3.8</ele>
        <time>2019-08-04T13:02:08Z</time>
      </trkpt>
      <trkpt lat="51.245692474583" lon="4.595171989002">
        <ele>3.8</ele>
        <time>2019-08-04T13:02:09Z</time>
      </trkpt>
      <trkpt lat="51.24539684497" lon="4.594394986872">
        <ele>4.8</ele>
        <time>2019-08-04T13:02:19Z</time>
      </trkpt>
      <trkpt lat="51.245098616968" lon="4.593633491257">
        <ele>5</ele>
        <time>2019-08-04T13:02:29Z</time>
      </trkpt>
      <trkpt lat="51.244796952387" lon="4.592848274865">
        <ele>3.2</ele>
        <time>2019-08-04T13:02:37Z</time>
      </trkpt>
      <trkpt lat="51.244490342485" lon="4.592133214976">
        <ele>4</ele>
        <time>2019-08-04T13:02:45Z</time>
      </trkpt>
      <trkpt lat="51.244366038908" lon="4.591835908983">
        <ele>4.2</ele>
        <time>2019-08-04T13:02:49Z</time>
      </trkpt>
      <trkpt lat="51.244031098184" lon="4.591129985365">
        <ele>3.8</ele>
        <time>2019-08-04T13:02:59Z</time>
      </trkpt>
      <trkpt lat="51.243723230997" lon="4.590333956322">
        <ele>1.4</ele>
        <time>2019-08-04T13:03:10Z</time>
      </trkpt>
      <trkpt lat="51.243404551159" lon="4.589556367459">
        <ele>0</ele>
        <time>2019-08-04T13:03:21Z</time>
      </trkpt>
      <trkpt lat="51.243088050615" lon="4.588767965945">
        <ele>0.2</ele>
        <time>2019-08-04T13:03:31Z</time>
      </trkpt>
      <trkpt lat="51.2427791776" lon="4.588047457821">
        <ele>2</ele>
        <time>2019-08-04T13:03:40Z</time>
      </trkpt>
      <trkpt lat="51.242463096151" lon="4.587258469574">
        <ele>0</ele>
        <time>2019-08-04T13:03:50Z</time>
      </trkpt>
      <trkpt lat="51.242140979734" lon="4.586466882938">
        <ele>1.6</ele>
        <time>2019-08-04T13:04:01Z</time>
      </trkpt>
      <trkpt lat="51.241856414229" lon="4.585715445603">
        <ele>5.8</ele>
        <time>2019-08-04T13:04:12Z</time>
      </trkpt>
      <trkpt lat="51.241502949506" lon="4.585007929424">
        <ele>16</ele>
        <time>2019-08-04T13:04:23Z</time>
      </trkpt>
      <trkpt lat="51.241203631857" lon="4.584225059964">
        <ele>15.8</ele>
        <time>2019-08-04T13:04:34Z</time>
      </trkpt>
      <trkpt lat="51.240911606461" lon="4.583442944875">
        <ele>18.8</ele>
        <time>2019-08-04T13:04:45Z</time>
      </trkpt>
      <trkpt lat="51.240738352588" lon="4.583036338906">
        <ele>20.8</ele>
        <time>2019-08-04T13:04:51Z</time>
      </trkpt>
      <trkpt lat="51.240453535626" lon="4.58229336729">
        <ele>18.4</ele>
        <time>2019-08-04T13:05:00Z</time>
      </trkpt>
      <trkpt lat="51.240098729799" lon="4.581531620218">
        <ele>17.2</ele>
        <time>2019-08-04T13:05:09Z</time>
      </trkpt>
      <trkpt lat="51.239695560409" lon="4.580858721286">
        <ele>16</ele>
        <time>2019-08-04T13:05:19Z</time>
      </trkpt>
      <trkpt lat="51.239343269152" lon="4.580145421596">
        <ele>10.4</ele>
        <time>2019-08-04T13:05:29Z</time>
      </trkpt>
      <trkpt lat="51.239090051953" lon="4.579331622925">
        <ele>8.4</ele>
        <time>2019-08-04T13:05:40Z</time>
      </trkpt>
      <trkpt lat="51.239034479956" lon="4.579110592222">
        <ele>8.6</ele>
        <time>2019-08-04T13:05:44Z</time>
      </trkpt>
      <trkpt lat="51.238916965718" lon="4.578832648418">
        <ele>6.6</ele>
        <time>2019-08-04T13:05:48Z</time>
      </trkpt>
      <trkpt lat="51.238696605567" lon="4.578025722905">
        <ele>5.4</ele>
        <time>2019-08-04T13:05:58Z</time>
      </trkpt>
      <trkpt lat="51.238453195191" lon="4.577164650318">
        <ele>6</ele>
        <time>2019-08-04T13:06:09Z</time>
      </trkpt>
      <trkpt lat="51.238158403768" lon="4.576367615447">
        <ele>10.6</ele>
        <time>2019-08-04T13:06:19Z</time>
      </trkpt>
      <trkpt lat="51.237939552359" lon="4.575481229522">
        <ele>10.4</ele>
        <time>2019-08-04T13:06:29Z</time>
      </trkpt>
      <trkpt lat="51.237694381784" lon="4.574679584606">
        <ele>11.4</ele>
        <time>2019-08-04T13:06:38Z</time>
      </trkpt>
      <trkpt lat="51.237584495075" lon="4.574272894818">
        <ele>8.8</ele>
        <time>2019-08-04T13:06:43Z</time>
      </trkpt>
      <trkpt lat="51.237590110948" lon="4.574098299841">
        <ele>8</ele>
        <time>2019-08-04T13:06:45Z</time>
      </trkpt>
      <trkpt lat="51.237578376288" lon="4.573918256629">
        <ele>8</ele>
        <time>2019-08-04T13:06:47Z</time>
      </trkpt>
      <trkpt lat="51.237340497966" lon="4.573056848766">
        <ele>0</ele>
        <time>2019-08-04T13:06:56Z</time>
      </trkpt>
      <trkpt lat="51.237095243572" lon="4.572210444504">
        <ele>0</ele>
        <time>2019-08-04T13:07:05Z</time>
      </trkpt>
      <trkpt lat="51.236876895077" lon="4.571392790159">
        <ele>0</ele>
        <time>2019-08-04T13:07:15Z</time>
      </trkpt>
      <trkpt lat="51.236621582403" lon="4.570525682604">
        <ele>0</ele>
        <time>2019-08-04T13:07:25Z</time>
      </trkpt>
      <trkpt lat="51.236393175628" lon="4.569699143445">
        <ele>0</ele>
        <time>2019-08-04T13:07:36Z</time>
      </trkpt>
      <trkpt lat="51.236130905977" lon="4.568826587655">
        <ele>0</ele>
        <time>2019-08-04T13:07:46Z</time>
      </trkpt>
      <trkpt lat="51.235873497828" lon="4.567989319664">
        <ele>0</ele>
        <time>2019-08-04T13:07:54Z</time>
      </trkpt>
      <trkpt lat="51.235635619506" lon="4.567156745537">
        <ele>0</ele>
        <time>2019-08-04T13:08:04Z</time>
      </trkpt>
      <trkpt lat="51.235446272385" lon="4.56642978335">
        <ele>0</ele>
        <time>2019-08-04T13:08:15Z</time>
      </trkpt>
      <trkpt lat="51.235438812494" lon="4.566279244426">
        <ele>0</ele>
        <time>2019-08-04T13:08:17Z</time>
      </trkpt>
      <trkpt lat="51.235251225572" lon="4.565550102945">
        <ele>0</ele>
        <time>2019-08-04T13:08:31Z</time>
      </trkpt>
      <trkpt lat="51.234971018655" lon="4.56471484661">
        <ele>0</ele>
        <time>2019-08-04T13:08:43Z</time>
      </trkpt>
      <trkpt lat="51.234732218324" lon="4.563849583073">
        <ele>0</ele>
        <time>2019-08-04T13:08:52Z</time>
      </trkpt>
      <trkpt lat="51.234517893141" lon="4.563058247894">
        <ele>0</ele>
        <time>2019-08-04T13:09:01Z</time>
      </trkpt>
      <trkpt lat="51.234255791128" lon="4.562241012644">
        <ele>0</ele>
        <time>2019-08-04T13:09:09Z</time>
      </trkpt>
      <trkpt lat="51.234034006054" lon="4.561435512054">
        <ele>0</ele>
        <time>2019-08-04T13:09:17Z</time>
      </trkpt>
      <trkpt lat="51.233782968149" lon="4.560572260173">
        <ele>0</ele>
        <time>2019-08-04T13:09:26Z</time>
      </trkpt>
      <trkpt lat="51.233558165591" lon="4.559764831746">
        <ele>0</ele>
        <time>2019-08-04T13:09:35Z</time>
      </trkpt>
      <trkpt lat="51.233314252301" lon="4.558920271502">
        <ele>0</ele>
        <time>2019-08-04T13:09:46Z</time>
      </trkpt>
      <trkpt lat="51.233062711482" lon="4.558074537792">
        <ele>0</ele>
        <time>2019-08-04T13:09:57Z</time>
      </trkpt>
      <trkpt lat="51.232834388526" lon="4.557280688043">
        <ele>0</ele>
        <time>2019-08-04T13:10:07Z</time>
      </trkpt>
      <trkpt lat="51.232614028375" lon="4.5564762771">
        <ele>0</ele>
        <time>2019-08-04T13:10:17Z</time>
      </trkpt>
      <trkpt lat="51.232302221695" lon="4.555400544054">
        <ele>0</ele>
        <time>2019-08-04T13:10:30Z</time>
      </trkpt>
      <trkpt lat="51.232068366685" lon="4.554619183336">
        <ele>0</ele>
        <time>2019-08-04T13:10:40Z</time>
      </trkpt>
      <trkpt lat="51.231830823639" lon="4.553827429062">
        <ele>0</ele>
        <time>2019-08-04T13:10:51Z</time>
      </trkpt>
      <trkpt lat="51.231707274433" lon="4.553401628542">
        <ele>0</ele>
        <time>2019-08-04T13:10:57Z</time>
      </trkpt>
      <trkpt lat="51.231642063251" lon="4.553318899189">
        <ele>0</ele>
        <time>2019-08-04T13:10:59Z</time>
      </trkpt>
      <trkpt lat="51.231587748539" lon="4.553223596986">
        <ele>0</ele>
        <time>2019-08-04T13:11:01Z</time>
      </trkpt>
      <trkpt lat="51.231545922858" lon="4.553088648396">
        <ele>0</ele>
        <time>2019-08-04T13:11:03Z</time>
      </trkpt>
      <trkpt lat="51.23139823378" lon="4.552206453421">
        <ele>0</ele>
        <time>2019-08-04T13:11:13Z</time>
      </trkpt>
      <trkpt lat="51.231310391468" lon="4.551290563208">
        <ele>0</ele>
        <time>2019-08-04T13:11:23Z</time>
      </trkpt>
      <trkpt lat="51.231292202745" lon="4.550380875601">
        <ele>0</ele>
        <time>2019-08-04T13:11:34Z</time>
      </trkpt>
      <trkpt lat="51.231356156642" lon="4.549743851201">
        <ele>0</ele>
        <time>2019-08-04T13:11:44Z</time>
      </trkpt>
      <trkpt lat="51.231459337831" lon="4.548887388659">
        <ele>0</ele>
        <time>2019-08-04T13:11:54Z</time>
      </trkpt>
      <trkpt lat="51.231609625298" lon="4.548059424577">
        <ele>0</ele>
        <time>2019-08-04T13:12:04Z</time>
      </trkpt>
      <trkpt lat="51.231808024871" lon="4.547220480206">
        <ele>0</ele>
        <time>2019-08-04T13:12:15Z</time>
      </trkpt>
      <trkpt lat="51.232090411082" lon="4.546457894944">
        <ele>0</ele>
        <time>2019-08-04T13:12:29Z</time>
      </trkpt>
      <trkpt lat="51.232325942472" lon="4.545896140006">
        <ele>0</ele>
        <time>2019-08-04T13:12:38Z</time>
      </trkpt>
      <trkpt lat="51.232560132758" lon="4.545309658463">
        <ele>0</ele>
        <time>2019-08-04T13:12:46Z</time>
      </trkpt>
      <trkpt lat="51.232819552563" lon="4.544769612646">
        <ele>0</ele>
        <time>2019-08-04T13:12:53Z</time>
      </trkpt>
      <trkpt lat="51.233148625957" lon="4.544038459509">
        <ele>0</ele>
        <time>2019-08-04T13:13:02Z</time>
      </trkpt>
      <trkpt lat="51.233500749576" lon="4.543339576687">
        <ele>0</ele>
        <time>2019-08-04T13:13:12Z</time>
      </trkpt>
      <trkpt lat="51.233803922899" lon="4.542539356694">
        <ele>0</ele>
        <time>2019-08-04T13:13:21Z</time>
      </trkpt>
      <trkpt lat="51.233989749622" lon="4.541688510025">
        <ele>0</ele>
        <time>2019-08-04T13:13:31Z</time>
      </trkpt>
      <trkpt lat="51.234157136165" lon="4.540823749402">
        <ele>0</ele>
        <time>2019-08-04T13:13:42Z</time>
      </trkpt>
      <trkpt lat="51.234241709536" lon="4.539949852508">
        <ele>0</ele>
        <time>2019-08-04T13:13:52Z</time>
      </trkpt>
      <trkpt lat="51.234196782552" lon="4.539015689753">
        <ele>0</ele>
        <time>2019-08-04T13:14:03Z</time>
      </trkpt>
      <trkpt lat="51.23411648395" lon="4.538164675446">
        <ele>0</ele>
        <time>2019-08-04T13:14:12Z</time>
      </trkpt>
      <trkpt lat="51.233984469025" lon="4.537278457159">
        <ele>0</ele>
        <time>2019-08-04T13:14:21Z</time>
      </trkpt>
      <trkpt lat="51.233857147964" lon="4.53638653918">
        <ele>0</ele>
        <time>2019-08-04T13:14:31Z</time>
      </trkpt>
      <trkpt lat="51.233727647609" lon="4.53548297036">
        <ele>0</ele>
        <time>2019-08-04T13:14:42Z</time>
      </trkpt>
      <trkpt lat="51.233623460592" lon="4.534642601066">
        <ele>0</ele>
        <time>2019-08-04T13:14:53Z</time>
      </trkpt>
      <trkpt lat="51.233630249931" lon="4.53443858562">
        <ele>0</ele>
        <time>2019-08-04T13:14:56Z</time>
      </trkpt>
      <trkpt lat="51.233564703473" lon="4.533526886357">
        <ele>0</ele>
        <time>2019-08-04T13:15:08Z</time>
      </trkpt>
      <trkpt lat="51.233573923563" lon="4.53265575549">
        <ele>0</ele>
        <time>2019-08-04T13:15:20Z</time>
      </trkpt>
      <trkpt lat="51.233624382601" lon="4.5317161445">
        <ele>0</ele>
        <time>2019-08-04T13:15:31Z</time>
      </trkpt>
      <trkpt lat="51.23368733067" lon="4.530855071913">
        <ele>0</ele>
        <time>2019-08-04T13:15:40Z</time>
      </trkpt>
      <trkpt lat="51.233783387244" lon="4.529942115365">
        <ele>0</ele>
        <time>2019-08-04T13:15:51Z</time>
      </trkpt>
      <trkpt lat="51.233915485988" lon="4.529018094709">
        <ele>0</ele>
        <time>2019-08-04T13:16:01Z</time>
      </trkpt>
      <trkpt lat="51.234017242254" lon="4.52813288225">
        <ele>0</ele>
        <time>2019-08-04T13:16:10Z</time>
      </trkpt>
      <trkpt lat="51.234119585253" lon="4.527204503006">
        <ele>0</ele>
        <time>2019-08-04T13:16:20Z</time>
      </trkpt>
      <trkpt lat="51.234227795582" lon="4.52628886425">
        <ele>0</ele>
        <time>2019-08-04T13:16:31Z</time>
      </trkpt>
      <trkpt lat="51.234303987053" lon="4.525675728265">
        <ele>0</ele>
        <time>2019-08-04T13:16:39Z</time>
      </trkpt>
      <trkpt lat="51.234366599846" lon="4.524757994034">
        <ele>0</ele>
        <time>2019-08-04T13:16:50Z</time>
      </trkpt>
      <trkpt lat="51.234466428275" lon="4.523874457955">
        <ele>0</ele>
        <time>2019-08-04T13:16:59Z</time>
      </trkpt>
      <trkpt lat="51.234558964451" lon="4.522997459758">
        <ele>0</ele>
        <time>2019-08-04T13:17:08Z</time>
      </trkpt>
      <trkpt lat="51.234644627469" lon="4.522106631426">
        <ele>0</ele>
        <time>2019-08-04T13:17:18Z</time>
      </trkpt>
      <trkpt lat="51.234728027374" lon="4.521241367889">
        <ele>0</ele>
        <time>2019-08-04T13:17:29Z</time>
      </trkpt>
      <trkpt lat="51.234724255519" lon="4.520337128517">
        <ele>0</ele>
        <time>2019-08-04T13:17:40Z</time>
      </trkpt>
      <trkpt lat="51.234716963266" lon="4.520161779169">
        <ele>0</ele>
        <time>2019-08-04T13:17:42Z</time>
      </trkpt>
      <trkpt lat="51.234689051539" lon="4.519814600871">
        <ele>0</ele>
        <time>2019-08-04T13:17:46Z</time>
      </trkpt>
      <trkpt lat="51.234630881153" lon="4.518877085356">
        <ele>0</ele>
        <time>2019-08-04T13:17:56Z</time>
      </trkpt>
      <trkpt lat="51.234510852345" lon="4.517969744681">
        <ele>0</ele>
        <time>2019-08-04T13:18:06Z</time>
      </trkpt>
      <trkpt lat="51.234379424153" lon="4.51707212701">
        <ele>0.8</ele>
        <time>2019-08-04T13:18:17Z</time>
      </trkpt>
      <trkpt lat="51.234237015672" lon="4.516192781881">
        <ele>1.6</ele>
        <time>2019-08-04T13:18:30Z</time>
      </trkpt>
      <trkpt lat="51.234102905272" lon="4.515328440353">
        <ele>2.6</ele>
        <time>2019-08-04T13:18:43Z</time>
      </trkpt>
      <trkpt lat="51.233948259217" lon="4.514435768003">
        <ele>5.8</ele>
        <time>2019-08-04T13:18:53Z</time>
      </trkpt>
      <trkpt lat="51.233784141615" lon="4.513499677411">
        <ele>4.6</ele>
        <time>2019-08-04T13:19:02Z</time>
      </trkpt>
      <trkpt lat="51.233628238275" lon="4.512568867416">
        <ele>0.4</ele>
        <time>2019-08-04T13:19:09Z</time>
      </trkpt>
      <trkpt lat="51.233486919441" lon="4.511728079027">
        <ele>0</ele>
        <time>2019-08-04T13:19:15Z</time>
      </trkpt>
      <trkpt lat="51.233358005819" lon="4.510886117172">
        <ele>0</ele>
        <time>2019-08-04T13:19:21Z</time>
      </trkpt>
      <trkpt lat="51.233213250406" lon="4.509995959392">
        <ele>0</ele>
        <time>2019-08-04T13:19:28Z</time>
      </trkpt>
      <trkpt lat="51.233129431406" lon="4.509446944942">
        <ele>0</ele>
        <time>2019-08-04T13:19:33Z</time>
      </trkpt>
      <trkpt lat="51.233149296509" lon="4.509111668942">
        <ele>0</ele>
        <time>2019-08-04T13:19:36Z</time>
      </trkpt>
      <trkpt lat="51.233129012311" lon="4.50890312727">
        <ele>0</ele>
        <time>2019-08-04T13:19:38Z</time>
      </trkpt>
      <trkpt lat="51.233022729819" lon="4.508423347314">
        <ele>0</ele>
        <time>2019-08-04T13:19:43Z</time>
      </trkpt>
      <trkpt lat="51.232807398808" lon="4.507641316044">
        <ele>0</ele>
        <time>2019-08-04T13:19:56Z</time>
      </trkpt>
      <trkpt lat="51.232642275378" lon="4.506736909034">
        <ele>0</ele>
        <time>2019-08-04T13:20:08Z</time>
      </trkpt>
      <trkpt lat="51.232500034535" lon="4.505809535618">
        <ele>0</ele>
        <time>2019-08-04T13:20:19Z</time>
      </trkpt>
      <trkpt lat="51.232327367395" lon="4.504922143865">
        <ele>0</ele>
        <time>2019-08-04T13:20:29Z</time>
      </trkpt>
      <trkpt lat="51.232143636147" lon="4.504082864218">
        <ele>0</ele>
        <time>2019-08-04T13:20:39Z</time>
      </trkpt>
      <trkpt lat="51.232096613688" lon="4.503865773008">
        <ele>0</ele>
        <time>2019-08-04T13:20:42Z</time>
      </trkpt>
      <trkpt lat="51.231967951523" lon="4.503183653986">
        <ele>0</ele>
        <time>2019-08-04T13:20:52Z</time>
      </trkpt>
      <trkpt lat="51.231968873532" lon="4.502690630628">
        <ele>0</ele>
        <time>2019-08-04T13:20:58Z</time>
      </trkpt>
      <trkpt lat="51.232270454294" lon="4.501961321509">
        <ele>0</ele>
        <time>2019-08-04T13:21:09Z</time>
      </trkpt>
      <trkpt lat="51.232620650076" lon="4.501254475882">
        <ele>0</ele>
        <time>2019-08-04T13:21:20Z</time>
      </trkpt>
      <trkpt lat="51.232984424536" lon="4.500581828407">
        <ele>0</ele>
        <time>2019-08-04T13:21:31Z</time>
      </trkpt>
      <trkpt lat="51.233327830979" lon="4.499906582543">
        <ele>0</ele>
        <time>2019-08-04T13:21:43Z</time>
      </trkpt>
      <trkpt lat="51.233413577816" lon="4.499744560416">
        <ele>0</ele>
        <time>2019-08-04T13:21:46Z</time>
      </trkpt>
      <trkpt lat="51.233470826193" lon="4.499616987898">
        <ele>0</ele>
        <time>2019-08-04T13:21:48Z</time>
      </trkpt>
      <trkpt lat="51.233864440217" lon="4.498887008227">
        <ele>0</ele>
        <time>2019-08-04T13:21:58Z</time>
      </trkpt>
      <trkpt lat="51.23418353915" lon="4.498134816521">
        <ele>0</ele>
        <time>2019-08-04T13:22:07Z</time>
      </trkpt>
      <trkpt lat="51.234425189327" lon="4.49732688518">
        <ele>0</ele>
        <time>2019-08-04T13:22:16Z</time>
      </trkpt>
      <trkpt lat="51.234642531994" lon="4.49651300269">
        <ele>0</ele>
        <time>2019-08-04T13:22:26Z</time>
      </trkpt>
      <trkpt lat="51.234878063384" lon="4.49570834029">
        <ele>0</ele>
        <time>2019-08-04T13:22:36Z</time>
      </trkpt>
      <trkpt lat="51.235121054665" lon="4.494895631266">
        <ele>0</ele>
        <time>2019-08-04T13:22:48Z</time>
      </trkpt>
      <trkpt lat="51.235343677929" lon="4.494082586966">
        <ele>0</ele>
        <time>2019-08-04T13:22:58Z</time>
      </trkpt>
      <trkpt lat="51.235601840449" lon="4.4932348416">
        <ele>0</ele>
        <time>2019-08-04T13:23:08Z</time>
      </trkpt>
      <trkpt lat="51.235846256653" lon="4.492434202512">
        <ele>0</ele>
        <time>2019-08-04T13:23:18Z</time>
      </trkpt>
      <trkpt lat="51.23608874502" lon="4.491602550394">
        <ele>0</ele>
        <time>2019-08-04T13:23:29Z</time>
      </trkpt>
      <trkpt lat="51.236266776576" lon="4.491043980578">
        <ele>0</ele>
        <time>2019-08-04T13:23:37Z</time>
      </trkpt>
      <trkpt lat="51.236346572264" lon="4.490599069326">
        <ele>0</ele>
        <time>2019-08-04T13:23:47Z</time>
      </trkpt>
      <trkpt lat="51.236354199793" lon="4.490515250326">
        <ele>0</ele>
        <time>2019-08-04T13:24:30Z</time>
      </trkpt>
      <trkpt lat="51.236353110146" lon="4.490161617965">
        <ele>0</ele>
        <time>2019-08-04T13:24:37Z</time>
      </trkpt>
      <trkpt lat="51.236341207848" lon="4.489824162671">
        <ele>0</ele>
        <time>2019-08-04T13:24:41Z</time>
      </trkpt>
      <trkpt lat="51.236344644427" lon="4.489640850518">
        <ele>0</ele>
        <time>2019-08-04T13:24:43Z</time>
      </trkpt>
      <trkpt lat="51.236377250018" lon="4.488270912782">
        <ele>0</ele>
        <time>2019-08-04T13:24:58Z</time>
      </trkpt>
      <trkpt lat="51.236351014671" lon="4.487393914585">
        <ele>0</ele>
        <time>2019-08-04T13:25:08Z</time>
      </trkpt>
      <trkpt lat="51.236341543124" lon="4.486455141785">
        <ele>0</ele>
        <time>2019-08-04T13:25:19Z</time>
      </trkpt>
      <trkpt lat="51.236335927251" lon="4.485569007317">
        <ele>0</ele>
        <time>2019-08-04T13:25:29Z</time>
      </trkpt>
      <trkpt lat="51.236316648881" lon="4.484665354678">
        <ele>0</ele>
        <time>2019-08-04T13:25:39Z</time>
      </trkpt>
      <trkpt lat="51.236288401878" lon="4.483720127815">
        <ele>0</ele>
        <time>2019-08-04T13:25:47Z</time>
      </trkpt>
      <trkpt lat="51.236272643906" lon="4.48285553483">
        <ele>0</ele>
        <time>2019-08-04T13:25:55Z</time>
      </trkpt>
      <trkpt lat="51.236267363309" lon="4.481939560798">
        <ele>0</ele>
        <time>2019-08-04T13:26:04Z</time>
      </trkpt>
      <trkpt lat="51.236305081859" lon="4.48104336805">
        <ele>0</ele>
        <time>2019-08-04T13:26:14Z</time>
      </trkpt>
      <trkpt lat="51.236368616661" lon="4.480116916643">
        <ele>0</ele>
        <time>2019-08-04T13:26:23Z</time>
      </trkpt>
      <trkpt lat="51.236386721565" lon="4.479169426667">
        <ele>0</ele>
        <time>2019-08-04T13:26:32Z</time>
      </trkpt>
      <trkpt lat="51.236313547578" lon="4.478278514516">
        <ele>0</ele>
        <time>2019-08-04T13:26:41Z</time>
      </trkpt>
      <trkpt lat="51.236180275368" lon="4.477433367539">
        <ele>0</ele>
        <time>2019-08-04T13:26:50Z</time>
      </trkpt>
      <trkpt lat="51.236009033151" lon="4.476590483675">
        <ele>0</ele>
        <time>2019-08-04T13:26:59Z</time>
      </trkpt>
      <trkpt lat="51.235820440401" lon="4.475782552334">
        <ele>0</ele>
        <time>2019-08-04T13:27:08Z</time>
      </trkpt>
      <trkpt lat="51.235657328627" lon="4.474933382045">
        <ele>0</ele>
        <time>2019-08-04T13:27:18Z</time>
      </trkpt>
      <trkpt lat="51.235459012873" lon="4.474055964753">
        <ele>0</ele>
        <time>2019-08-04T13:27:29Z</time>
      </trkpt>
      <trkpt lat="51.235440069779" lon="4.473989580105">
        <ele>0</ele>
        <time>2019-08-04T13:27:30Z</time>
      </trkpt>
      <trkpt lat="51.23527821529" lon="4.473090956606">
        <ele>0</ele>
        <time>2019-08-04T13:27:42Z</time>
      </trkpt>
      <trkpt lat="51.235096495698" lon="4.472230219295">
        <ele>0</ele>
        <time>2019-08-04T13:27:51Z</time>
      </trkpt>
      <trkpt lat="51.234943861299" lon="4.471373002382">
        <ele>0</ele>
        <time>2019-08-04T13:28:00Z</time>
      </trkpt>
      <trkpt lat="51.23482726907" lon="4.470529615604">
        <ele>0</ele>
        <time>2019-08-04T13:28:09Z</time>
      </trkpt>
      <trkpt lat="51.234786533036" lon="4.470249827782">
        <ele>0</ele>
        <time>2019-08-04T13:28:12Z</time>
      </trkpt>
      <trkpt lat="51.23462945623" lon="4.469335613949">
        <ele>0</ele>
        <time>2019-08-04T13:28:22Z</time>
      </trkpt>
      <trkpt lat="51.23448277298" lon="4.468487198031">
        <ele>0</ele>
        <time>2019-08-04T13:28:31Z</time>
      </trkpt>
      <trkpt lat="51.234372886271" lon="4.467627801824">
        <ele>0</ele>
        <time>2019-08-04T13:28:40Z</time>
      </trkpt>
      <trkpt lat="51.234222598804" lon="4.466796484982">
        <ele>0</ele>
        <time>2019-08-04T13:28:49Z</time>
      </trkpt>
      <trkpt lat="51.234075831735" lon="4.465912781265">
        <ele>0.2</ele>
        <time>2019-08-04T13:28:59Z</time>
      </trkpt>
      <trkpt lat="51.233945074095" lon="4.465028239358">
        <ele>0.8</ele>
        <time>2019-08-04T13:29:09Z</time>
      </trkpt>
      <trkpt lat="51.233807527116" lon="4.464150319152">
        <ele>2</ele>
        <time>2019-08-04T13:29:17Z</time>
      </trkpt>
      <trkpt lat="51.233682385349" lon="4.463313051161">
        <ele>2.6</ele>
        <time>2019-08-04T13:29:25Z</time>
      </trkpt>
      <trkpt lat="51.233570067889" lon="4.462436220602">
        <ele>2.8</ele>
        <time>2019-08-04T13:29:34Z</time>
      </trkpt>
      <trkpt lat="51.233423719915" lon="4.461592498548">
        <ele>3.6</ele>
        <time>2019-08-04T13:29:44Z</time>
      </trkpt>
      <trkpt lat="51.233284580375" lon="4.460725893907">
        <ele>4.6</ele>
        <time>2019-08-04T13:29:54Z</time>
      </trkpt>
      <trkpt lat="51.233150972889" lon="4.459836155222">
        <ele>4.2</ele>
        <time>2019-08-04T13:30:04Z</time>
      </trkpt>
      <trkpt lat="51.232997081205" lon="4.458934095144">
        <ele>1.6</ele>
        <time>2019-08-04T13:30:14Z</time>
      </trkpt>
      <trkpt lat="51.232861126787" lon="4.458088277615">
        <ele>0</ele>
        <time>2019-08-04T13:30:24Z</time>
      </trkpt>
      <trkpt lat="51.232780912004" lon="4.457781500075">
        <ele>0</ele>
        <time>2019-08-04T13:30:29Z</time>
      </trkpt>
      <trkpt lat="51.232757526503" lon="4.457759539497">
        <ele>0</ele>
        <time>2019-08-04T13:30:33Z</time>
      </trkpt>
      <trkpt lat="51.232747971137" lon="4.457757444022">
        <ele>0</ele>
        <time>2019-08-04T13:30:40Z</time>
      </trkpt>
      <trkpt lat="51.232689381656" lon="4.457773201994">
        <ele>0</ele>
        <time>2019-08-04T13:30:44Z</time>
      </trkpt>
      <trkpt lat="51.232317979667" lon="4.457781835351">
        <ele>0</ele>
        <time>2019-08-04T13:30:55Z</time>
      </trkpt>
      <trkpt lat="51.23179469765" lon="4.458028598487">
        <ele>0</ele>
        <time>2019-08-04T13:31:04Z</time>
      </trkpt>
      <trkpt lat="51.231390187156" lon="4.458313583087">
        <ele>0</ele>
        <time>2019-08-04T13:31:12Z</time>
      </trkpt>
      <trkpt lat="51.231316007341" lon="4.458424643262">
        <ele>0</ele>
        <time>2019-08-04T13:31:14Z</time>
      </trkpt>
      <trkpt lat="51.231210395401" lon="4.458542828052">
        <ele>0</ele>
        <time>2019-08-04T13:31:16Z</time>
      </trkpt>
      <trkpt lat="51.230685353185" lon="4.458788166265">
        <ele>0</ele>
        <time>2019-08-04T13:31:27Z</time>
      </trkpt>
      <trkpt lat="51.230506902534" lon="4.458853628904">
        <ele>0</ele>
        <time>2019-08-04T13:31:32Z</time>
      </trkpt>
      <trkpt lat="51.230477230608" lon="4.45898891277">
        <ele>0</ele>
        <time>2019-08-04T13:31:35Z</time>
      </trkpt>
    </trkseg>
  </trk>
</gpx>